DAL181 PHNL-RJTT
Flight info
| Callsign | DAL181 |
|---|---|
| Flight time | 7h 42m |
| Altitude | 38000 |
| Route | KEOLA3 PUPPI DCT CRESP DCT 23N170W 25N180W 26N170E/N0481F400 28N160E 31N150E TONIK G223 BEGAD Y817 OLVEK Y824 AROSA |
| Aircraft | A359/H-SDE2E3GHIJ3J4J5LM1ORWXY/LB1D1 |
Departure
| Time | 2026-05-04 16:50 |
|---|---|
| Airport | Daniel K. Inouye International Airport (PHNL) |
Arrival
| Time | 2026-05-05 00:32 |
|---|---|
| Airport | Tokyo Haneda International Airport (RJTT) |
| Time | Latitude | Longitude | Altitude | Speed | Heading |
|---|---|---|---|---|---|
| 2026-05-04 16:21 | 21.32870 | -157.92526 | 31 ft | 0 kts | 0° |
| 2026-05-04 16:35 | 21.32860 | -157.92525 | 30 ft | 0 kts | 339° |
| 2026-05-04 16:36 | 21.32830 | -157.92525 | 30 ft | 4 kts | 358° |
| 2026-05-04 16:37 | 21.32779 | -157.92528 | 29 ft | 4 kts | 21° |
| 2026-05-04 16:37 | 21.32767 | -157.92542 | 28 ft | 4 kts | 100° |
| 2026-05-04 16:37 | 21.32774 | -157.92576 | 29 ft | 0 kts | 91° |
| 2026-05-04 16:41 | 21.32774 | -157.92435 | 30 ft | 12 kts | 90° |
| 2026-05-04 16:41 | 21.32692 | -157.92198 | 30 ft | 13 kts | 91° |
| 2026-05-04 16:42 | 21.32692 | -157.92052 | 30 ft | 0 kts | 89° |
| 2026-05-04 16:43 | 21.32692 | -157.92034 | 30 ft | 11 kts | 90° |
| 2026-05-04 16:43 | 21.32692 | -157.91945 | 30 ft | 13 kts | 90° |
| 2026-05-04 16:44 | 21.32692 | -157.91471 | 30 ft | 19 kts | 91° |
| 2026-05-04 16:45 | 21.32746 | -157.91285 | 30 ft | 13 kts | 50° |
| 2026-05-04 16:46 | 21.32933 | -157.91023 | 30 ft | 17 kts | 52° |
| 2026-05-04 16:46 | 21.33042 | -157.90805 | 30 ft | 16 kts | 90° |
| 2026-05-04 16:47 | 21.32895 | -157.90647 | 30 ft | 17 kts | 142° |
| 2026-05-04 16:47 | 21.32725 | -157.90588 | 30 ft | 12 kts | 222° |
| 2026-05-04 16:48 | 21.32550 | -157.90838 | 30 ft | 15 kts | 240° |
| 2026-05-04 16:48 | 21.32517 | -157.90936 | 30 ft | 11 kts | 272° |
| 2026-05-04 16:49 | 21.32529 | -157.91055 | 30 ft | 27 kts | 271° |
| 2026-05-04 16:49 | 21.32527 | -157.92528 | 32 ft | 163 kts | 269° |
| 2026-05-04 16:50 | 21.32043 | -157.95186 | 1127 ft | 198 kts | 251° |
| 2026-05-04 16:50 | 21.31414 | -157.98441 | 1690 ft | 248 kts | 266° |
| 2026-05-04 16:51 | 21.31168 | -158.02420 | 2529 ft | 276 kts | 269° |
| 2026-05-04 16:51 | 21.31086 | -158.04497 | 3142 ft | 282 kts | 270° |
| 2026-05-04 16:51 | 21.30952 | -158.08722 | 4570 ft | 281 kts | 268° |
| 2026-05-04 16:52 | 21.30831 | -158.12870 | 6097 ft | 276 kts | 267° |
| 2026-05-04 16:52 | 21.30772 | -158.14913 | 6880 ft | 274 kts | 267° |
| 2026-05-04 16:53 | 21.30652 | -158.19060 | 8126 ft | 283 kts | 267° |
| 2026-05-04 16:53 | 21.30468 | -158.25512 | 10076 ft | 293 kts | 267° |
| 2026-05-04 16:54 | 21.30404 | -158.27738 | 10431 ft | 307 kts | 267° |
| 2026-05-04 16:55 | 21.30113 | -158.37741 | 11413 ft | 363 kts | 266° |
| 2026-05-04 16:55 | 21.29954 | -158.43243 | 12279 ft | 373 kts | 267° |
| 2026-05-04 16:56 | 21.29898 | -158.48850 | 13264 ft | 378 kts | 273° |
| 2026-05-04 16:56 | 21.31439 | -158.57162 | 14695 ft | 384 kts | 281° |
| 2026-05-04 16:57 | 21.32020 | -158.59963 | 15079 ft | 387 kts | 281° |
| 2026-05-04 16:57 | 21.33184 | -158.65620 | 15879 ft | 392 kts | 281° |
| 2026-05-04 16:58 | 21.34941 | -158.74199 | 17178 ft | 397 kts | 282° |
| 2026-05-04 16:58 | 21.35530 | -158.77082 | 17679 ft | 396 kts | 282° |
| 2026-05-04 16:59 | 21.36715 | -158.82896 | 18438 ft | 402 kts | 282° |
| 2026-05-04 17:00 | 21.39114 | -158.94698 | 19952 ft | 408 kts | 282° |
| 2026-05-04 17:00 | 21.40938 | -159.03707 | 21011 ft | 416 kts | 282° |
| 2026-05-04 17:01 | 21.42163 | -159.09768 | 21809 ft | 419 kts | 282° |
| 2026-05-04 17:01 | 21.43403 | -159.15918 | 22542 ft | 424 kts | 282° |
| 2026-05-04 17:02 | 21.44650 | -159.22114 | 23364 ft | 427 kts | 282° |
| 2026-05-04 17:02 | 21.45904 | -159.28359 | 24039 ft | 431 kts | 282° |
| 2026-05-04 17:03 | 21.46532 | -159.31493 | 24405 ft | 432 kts | 282° |
| 2026-05-04 17:03 | 21.47170 | -159.34674 | 24733 ft | 435 kts | 282° |
| 2026-05-04 17:03 | 21.48442 | -159.41035 | 25475 ft | 439 kts | 282° |
| 2026-05-04 17:04 | 21.49721 | -159.47440 | 26172 ft | 443 kts | 282° |
| 2026-05-04 17:04 | 21.51018 | -159.53955 | 26843 ft | 449 kts | 282° |
| 2026-05-04 17:05 | 21.52325 | -159.60530 | 27662 ft | 451 kts | 282° |
| 2026-05-04 17:05 | 21.53640 | -159.67159 | 28315 ft | 456 kts | 282° |
| 2026-05-04 17:06 | 21.54962 | -159.73840 | 29018 ft | 460 kts | 282° |
| 2026-05-04 17:06 | 21.55625 | -159.77199 | 29308 ft | 463 kts | 282° |
| 2026-05-04 17:07 | 21.56954 | -159.83932 | 29948 ft | 467 kts | 282° |
| 2026-05-04 17:07 | 21.57415 | -159.86270 | 30133 ft | 469 kts | 282° |
| 2026-05-04 17:07 | 21.58311 | -159.90825 | 30427 ft | 472 kts | 281° |
| 2026-05-04 17:07 | 21.58990 | -159.94284 | 30713 ft | 473 kts | 281° |
| 2026-05-04 17:08 | 21.59670 | -159.97734 | 30974 ft | 474 kts | 282° |
| 2026-05-04 17:08 | 21.61048 | -160.04684 | 31485 ft | 477 kts | 282° |
| 2026-05-04 17:08 | 21.61734 | -160.08173 | 31825 ft | 475 kts | 282° |
| 2026-05-04 17:09 | 21.62413 | -160.11637 | 32182 ft | 474 kts | 281° |
| 2026-05-04 17:09 | 21.63090 | -160.15105 | 32537 ft | 472 kts | 281° |
| 2026-05-04 17:09 | 21.63761 | -160.18545 | 32888 ft | 471 kts | 281° |
| 2026-05-04 17:10 | 21.65097 | -160.25413 | 33537 ft | 469 kts | 281° |
| 2026-05-04 17:10 | 21.67084 | -160.35633 | 34436 ft | 465 kts | 283° |
| 2026-05-04 17:11 | 21.67760 | -160.39013 | 34662 ft | 464 kts | 281° |
| 2026-05-04 17:11 | 21.68412 | -160.42417 | 34919 ft | 462 kts | 281° |
| 2026-05-04 17:11 | 21.69703 | -160.49167 | 35426 ft | 460 kts | 281° |
| 2026-05-04 17:12 | 21.70348 | -160.52521 | 35669 ft | 459 kts | 281° |
| 2026-05-04 17:12 | 21.71637 | -160.59231 | 36098 ft | 457 kts | 281° |
| 2026-05-04 17:13 | 21.73556 | -160.69242 | 36686 ft | 454 kts | 280° |
| 2026-05-04 17:14 | 21.75450 | -160.79149 | 37225 ft | 452 kts | 280° |
| 2026-05-04 17:14 | 21.76083 | -160.82467 | 37404 ft | 451 kts | 280° |
| 2026-05-04 17:14 | 21.77339 | -160.89066 | 37719 ft | 450 kts | 280° |
| 2026-05-04 17:15 | 21.77965 | -160.92356 | 37859 ft | 449 kts | 280° |
| 2026-05-04 17:15 | 21.79216 | -160.98949 | 37979 ft | 452 kts | 280° |
| 2026-05-04 17:16 | 21.80466 | -161.05553 | 37980 ft | 455 kts | 280° |
| 2026-05-04 17:17 | 21.82981 | -161.18880 | 37980 ft | 454 kts | 280° |
| 2026-05-04 17:18 | 21.85482 | -161.32198 | 37982 ft | 454 kts | 280° |
| 2026-05-04 17:19 | 21.87965 | -161.45481 | 37980 ft | 454 kts | 280° |
| 2026-05-04 17:20 | 21.90446 | -161.58813 | 37966 ft | 454 kts | 280° |
| 2026-05-04 17:20 | 21.92303 | -161.68836 | 37982 ft | 455 kts | 280° |
| 2026-05-04 17:21 | 21.94110 | -161.82262 | 37982 ft | 454 kts | 276° |
| 2026-05-04 17:22 | 21.94957 | -161.89000 | 37982 ft | 454 kts | 277° |
| 2026-05-04 17:23 | 21.96732 | -162.02469 | 37983 ft | 454 kts | 277° |
| 2026-05-04 17:24 | 21.98061 | -162.12535 | 37985 ft | 454 kts | 277° |
| 2026-05-04 17:25 | 21.99826 | -162.26012 | 37997 ft | 454 kts | 277° |
| 2026-05-04 17:26 | 22.01569 | -162.39410 | 37986 ft | 453 kts | 277° |
| 2026-05-04 17:27 | 22.03740 | -162.56221 | 37988 ft | 453 kts | 277° |
| 2026-05-04 17:28 | 22.05465 | -162.69670 | 37990 ft | 453 kts | 277° |
| 2026-05-04 17:29 | 22.08023 | -162.89789 | 37988 ft | 452 kts | 277° |
| 2026-05-04 17:31 | 22.10140 | -163.06591 | 37983 ft | 452 kts | 277° |
| 2026-05-04 17:32 | 22.12234 | -163.23353 | 37991 ft | 452 kts | 276° |
| 2026-05-04 17:33 | 22.13902 | -163.36800 | 37990 ft | 452 kts | 277° |
| 2026-05-04 17:34 | 22.15553 | -163.50212 | 37988 ft | 452 kts | 276° |
| 2026-05-04 17:35 | 22.17607 | -163.67026 | 37991 ft | 452 kts | 276° |
| 2026-05-04 17:36 | 22.18419 | -163.73709 | 37991 ft | 452 kts | 276° |
| 2026-05-04 17:36 | 22.19234 | -163.80441 | 37991 ft | 453 kts | 276° |
| 2026-05-04 17:37 | 22.20046 | -163.87179 | 37994 ft | 453 kts | 276° |
| 2026-05-04 17:37 | 22.20869 | -163.93919 | 37993 ft | 453 kts | 277° |
| 2026-05-04 17:38 | 22.21864 | -164.00627 | 37998 ft | 453 kts | 278° |
| 2026-05-04 17:38 | 22.22736 | -164.06193 | 37987 ft | 453 kts | 278° |
| 2026-05-04 17:39 | 22.24431 | -164.17351 | 37991 ft | 453 kts | 278° |
| 2026-05-04 17:39 | 22.25426 | -164.24066 | 37993 ft | 453 kts | 278° |
| 2026-05-04 17:40 | 22.26250 | -164.29647 | 37987 ft | 453 kts | 278° |
| 2026-05-04 17:40 | 22.27239 | -164.36363 | 37991 ft | 453 kts | 278° |
| 2026-05-04 17:41 | 22.28227 | -164.43086 | 37991 ft | 453 kts | 278° |
| 2026-05-04 17:41 | 22.29213 | -164.49807 | 37988 ft | 454 kts | 278° |
| 2026-05-04 17:42 | 22.30196 | -164.56532 | 37992 ft | 454 kts | 278° |
| 2026-05-04 17:42 | 22.31170 | -164.63215 | 37995 ft | 454 kts | 278° |
| 2026-05-04 17:43 | 22.32149 | -164.69952 | 37993 ft | 454 kts | 278° |
| 2026-05-04 17:43 | 22.33124 | -164.76680 | 37997 ft | 454 kts | 278° |
| 2026-05-04 17:44 | 22.34096 | -164.83419 | 37992 ft | 454 kts | 277° |
| 2026-05-04 17:44 | 22.35051 | -164.90152 | 37999 ft | 453 kts | 277° |
| 2026-05-04 17:45 | 22.36003 | -164.96842 | 38001 ft | 453 kts | 278° |
| 2026-05-04 17:45 | 22.36965 | -165.03574 | 37995 ft | 453 kts | 277° |
| 2026-05-04 17:46 | 22.37926 | -165.10312 | 37993 ft | 454 kts | 278° |
| 2026-05-04 17:46 | 22.38886 | -165.17056 | 38000 ft | 454 kts | 278° |
| 2026-05-04 17:47 | 22.39845 | -165.23807 | 38001 ft | 454 kts | 278° |
| 2026-05-04 17:47 | 22.40794 | -165.30513 | 38003 ft | 454 kts | 277° |
| 2026-05-04 17:48 | 22.41745 | -165.37262 | 38004 ft | 454 kts | 277° |
| 2026-05-04 17:48 | 22.42693 | -165.44014 | 38006 ft | 455 kts | 277° |
| 2026-05-04 17:49 | 22.43640 | -165.50774 | 37999 ft | 455 kts | 277° |
| 2026-05-04 17:49 | 22.44579 | -165.57494 | 38001 ft | 455 kts | 277° |
| 2026-05-04 17:50 | 22.45519 | -165.64250 | 38007 ft | 455 kts | 277° |
| 2026-05-04 17:50 | 22.46459 | -165.71020 | 38012 ft | 455 kts | 277° |
| 2026-05-04 17:51 | 22.47392 | -165.77761 | 38007 ft | 453 kts | 277° |
| 2026-05-04 17:51 | 22.48322 | -165.84502 | 38008 ft | 453 kts | 277° |
| 2026-05-04 17:52 | 22.49250 | -165.91249 | 38008 ft | 454 kts | 277° |
| 2026-05-04 17:52 | 22.50167 | -165.97937 | 38008 ft | 454 kts | 277° |
| 2026-05-04 17:53 | 22.51092 | -166.04707 | 38010 ft | 454 kts | 277° |
| 2026-05-04 17:53 | 22.52009 | -166.11438 | 38010 ft | 454 kts | 277° |
| 2026-05-04 17:54 | 22.52925 | -166.18189 | 38008 ft | 453 kts | 277° |
| 2026-05-04 17:54 | 22.53838 | -166.24937 | 38010 ft | 453 kts | 277° |
| 2026-05-04 17:55 | 22.54741 | -166.31631 | 38010 ft | 453 kts | 277° |
| 2026-05-04 17:55 | 22.55648 | -166.38375 | 38010 ft | 453 kts | 277° |
| 2026-05-04 17:56 | 22.56553 | -166.45125 | 38015 ft | 453 kts | 277° |
| 2026-05-04 17:56 | 22.57455 | -166.51865 | 38015 ft | 453 kts | 277° |
| 2026-05-04 17:57 | 22.58356 | -166.58610 | 38012 ft | 453 kts | 277° |
| 2026-05-04 17:57 | 22.59245 | -166.65303 | 38014 ft | 453 kts | 277° |
| 2026-05-04 17:58 | 22.60138 | -166.72048 | 38012 ft | 453 kts | 277° |
| 2026-05-04 17:58 | 22.61027 | -166.78792 | 38012 ft | 453 kts | 277° |
| 2026-05-04 17:59 | 22.61914 | -166.85542 | 38013 ft | 453 kts | 277° |
| 2026-05-04 18:00 | 22.63232 | -166.95609 | 38015 ft | 453 kts | 277° |
| 2026-05-04 18:00 | 22.64112 | -167.02360 | 38022 ft | 452 kts | 277° |
| 2026-05-04 18:01 | 22.64988 | -167.09106 | 38016 ft | 452 kts | 277° |
| 2026-05-04 18:01 | 22.65861 | -167.15851 | 38014 ft | 453 kts | 277° |
| 2026-05-04 18:02 | 22.67166 | -167.25977 | 38015 ft | 453 kts | 277° |
| 2026-05-04 18:02 | 22.68025 | -167.32676 | 38016 ft | 453 kts | 277° |
| 2026-05-04 18:03 | 22.68890 | -167.39430 | 38019 ft | 453 kts | 277° |
| 2026-05-04 18:03 | 22.69752 | -167.46188 | 38018 ft | 453 kts | 277° |
| 2026-05-04 18:04 | 22.70610 | -167.52940 | 38018 ft | 453 kts | 277° |
| 2026-05-04 18:05 | 22.71892 | -167.63075 | 38012 ft | 453 kts | 277° |
| 2026-05-04 18:05 | 22.72740 | -167.69803 | 38016 ft | 454 kts | 277° |
| 2026-05-04 18:06 | 22.74015 | -167.79969 | 38021 ft | 454 kts | 277° |
| 2026-05-04 18:06 | 22.74862 | -167.86753 | 38021 ft | 454 kts | 277° |
| 2026-05-04 18:07 | 22.75706 | -167.93529 | 38014 ft | 454 kts | 277° |
| 2026-05-04 18:07 | 22.76547 | -168.00311 | 38021 ft | 454 kts | 277° |
| 2026-05-04 18:08 | 22.77380 | -168.07041 | 38021 ft | 454 kts | 277° |
| 2026-05-04 18:08 | 22.78215 | -168.13820 | 38020 ft | 454 kts | 277° |
| 2026-05-04 18:09 | 22.79876 | -168.27379 | 38021 ft | 454 kts | 277° |
| 2026-05-04 18:10 | 22.80702 | -168.34160 | 38025 ft | 454 kts | 277° |
| 2026-05-04 18:10 | 22.81525 | -168.40945 | 38028 ft | 454 kts | 276° |
| 2026-05-04 18:11 | 22.82347 | -168.47733 | 38025 ft | 454 kts | 276° |
| 2026-05-04 18:11 | 22.83158 | -168.54462 | 38025 ft | 454 kts | 276° |
| 2026-05-04 18:12 | 22.83972 | -168.61246 | 38024 ft | 454 kts | 276° |
| 2026-05-04 18:12 | 22.84786 | -168.68038 | 38029 ft | 454 kts | 276° |
| 2026-05-04 18:13 | 22.85596 | -168.74825 | 38025 ft | 454 kts | 276° |
| 2026-05-04 18:14 | 22.86706 | -168.84187 | 38027 ft | 454 kts | 276° |
| 2026-05-04 18:14 | 22.87510 | -168.90983 | 38023 ft | 454 kts | 276° |
| 2026-05-04 18:15 | 22.89105 | -169.04563 | 38031 ft | 454 kts | 276° |
| 2026-05-04 18:16 | 22.89899 | -169.11357 | 38028 ft | 455 kts | 276° |
| 2026-05-04 18:16 | 22.90686 | -169.18118 | 38031 ft | 455 kts | 276° |
| 2026-05-04 18:17 | 22.91871 | -169.28339 | 38031 ft | 455 kts | 276° |
| 2026-05-04 18:18 | 22.93047 | -169.38554 | 38028 ft | 455 kts | 276° |
| 2026-05-04 18:18 | 22.93830 | -169.45373 | 38025 ft | 455 kts | 276° |
| 2026-05-04 18:19 | 22.94988 | -169.55536 | 38032 ft | 455 kts | 276° |
| 2026-05-04 18:19 | 22.95757 | -169.62352 | 38033 ft | 455 kts | 276° |
| 2026-05-04 18:20 | 22.96525 | -169.69166 | 38031 ft | 455 kts | 276° |
| 2026-05-04 18:20 | 22.97292 | -169.75975 | 38033 ft | 455 kts | 276° |
| 2026-05-04 18:21 | 22.98057 | -169.82790 | 38032 ft | 455 kts | 276° |
| 2026-05-04 18:21 | 22.98821 | -169.89618 | 38030 ft | 456 kts | 276° |
| 2026-05-04 18:22 | 22.99577 | -169.96409 | 38031 ft | 456 kts | 276° |
| 2026-05-04 18:22 | 23.00739 | -170.03174 | 38032 ft | 457 kts | 282° |
| 2026-05-04 18:23 | 23.02271 | -170.09877 | 38029 ft | 457 kts | 283° |
| 2026-05-04 18:23 | 23.03853 | -170.16564 | 38031 ft | 457 kts | 283° |
| 2026-05-04 18:24 | 23.05433 | -170.23257 | 38033 ft | 457 kts | 283° |
| 2026-05-04 18:24 | 23.06991 | -170.29907 | 38031 ft | 458 kts | 283° |
| 2026-05-04 18:25 | 23.08553 | -170.36603 | 38042 ft | 458 kts | 283° |
| 2026-05-04 18:25 | 23.10111 | -170.43299 | 38040 ft | 458 kts | 282° |
| 2026-05-04 18:26 | 23.11669 | -170.50006 | 38035 ft | 457 kts | 282° |
| 2026-05-04 18:26 | 23.13222 | -170.56707 | 38037 ft | 458 kts | 282° |
| 2026-05-04 18:27 | 23.14775 | -170.63420 | 38035 ft | 458 kts | 282° |
| 2026-05-04 18:27 | 23.16311 | -170.70074 | 38036 ft | 456 kts | 283° |
| 2026-05-04 18:28 | 23.17850 | -170.76755 | 38037 ft | 455 kts | 283° |
| 2026-05-04 18:28 | 23.19384 | -170.83427 | 38038 ft | 455 kts | 283° |
| 2026-05-04 18:29 | 23.20913 | -170.90092 | 38034 ft | 455 kts | 282° |
| 2026-05-04 18:29 | 23.22444 | -170.96779 | 38037 ft | 455 kts | 282° |
| 2026-05-04 18:30 | 23.24733 | -171.06801 | 38041 ft | 456 kts | 282° |
| 2026-05-04 18:31 | 23.26244 | -171.13438 | 38040 ft | 455 kts | 282° |
| 2026-05-04 18:31 | 23.27765 | -171.20127 | 38043 ft | 455 kts | 282° |
| 2026-05-04 18:32 | 23.29283 | -171.26822 | 38036 ft | 455 kts | 282° |
| 2026-05-04 18:32 | 23.30798 | -171.33515 | 38042 ft | 456 kts | 282° |
| 2026-05-04 18:33 | 23.32305 | -171.40186 | 38039 ft | 457 kts | 282° |
| 2026-05-04 18:33 | 23.33818 | -171.46897 | 38042 ft | 457 kts | 282° |
| 2026-05-04 18:34 | 23.35328 | -171.53610 | 38038 ft | 457 kts | 282° |
| 2026-05-04 18:34 | 23.36834 | -171.60321 | 38038 ft | 457 kts | 282° |
| 2026-05-04 18:35 | 23.38329 | -171.66996 | 38041 ft | 457 kts | 282° |
| 2026-05-04 18:35 | 23.39829 | -171.73711 | 38035 ft | 457 kts | 282° |
| 2026-05-04 18:36 | 23.41330 | -171.80439 | 38047 ft | 457 kts | 282° |
| 2026-05-04 18:36 | 23.42826 | -171.87163 | 38050 ft | 457 kts | 282° |
| 2026-05-04 18:37 | 23.44310 | -171.93846 | 38053 ft | 457 kts | 282° |
| 2026-05-04 18:37 | 23.45802 | -172.00581 | 38051 ft | 457 kts | 282° |
| 2026-05-04 18:38 | 23.47290 | -172.07310 | 38055 ft | 457 kts | 282° |
| 2026-05-04 18:38 | 23.48774 | -172.14037 | 38053 ft | 457 kts | 282° |
| 2026-05-04 18:39 | 23.50257 | -172.20773 | 38055 ft | 457 kts | 282° |
| 2026-05-04 18:39 | 23.51727 | -172.27467 | 38053 ft | 457 kts | 282° |
| 2026-05-04 18:40 | 23.53204 | -172.34205 | 38060 ft | 457 kts | 282° |
| 2026-05-04 18:40 | 23.54678 | -172.40943 | 38051 ft | 457 kts | 282° |
| 2026-05-04 18:41 | 23.56149 | -172.47685 | 38060 ft | 458 kts | 282° |
| 2026-05-04 18:41 | 23.57620 | -172.54442 | 38060 ft | 457 kts | 282° |
| 2026-05-04 18:42 | 23.59075 | -172.61136 | 38060 ft | 456 kts | 282° |
| 2026-05-04 18:42 | 23.60532 | -172.67859 | 38059 ft | 456 kts | 282° |
| 2026-05-04 18:43 | 23.61987 | -172.74586 | 38059 ft | 456 kts | 282° |
| 2026-05-04 18:43 | 23.63438 | -172.81308 | 38059 ft | 456 kts | 282° |
| 2026-05-04 18:44 | 23.64883 | -172.88020 | 38062 ft | 457 kts | 282° |
| 2026-05-04 18:44 | 23.66333 | -172.94768 | 38063 ft | 457 kts | 282° |
| 2026-05-04 18:45 | 23.67780 | -173.01514 | 38054 ft | 457 kts | 282° |
| 2026-05-04 18:45 | 23.69222 | -173.08257 | 38059 ft | 457 kts | 282° |
| 2026-05-04 18:46 | 23.70662 | -173.15001 | 38060 ft | 457 kts | 282° |
| 2026-05-04 18:46 | 23.72101 | -173.21762 | 38060 ft | 458 kts | 282° |
| 2026-05-04 18:47 | 23.73534 | -173.28505 | 38065 ft | 458 kts | 282° |
| 2026-05-04 18:47 | 23.74968 | -173.35269 | 38071 ft | 458 kts | 282° |
| 2026-05-04 18:48 | 23.76399 | -173.42037 | 38066 ft | 458 kts | 282° |
| 2026-05-04 18:48 | 23.77828 | -173.48805 | 38066 ft | 458 kts | 282° |
| 2026-05-04 18:49 | 23.79255 | -173.55586 | 38069 ft | 458 kts | 282° |
| 2026-05-04 18:49 | 23.80688 | -173.62410 | 38071 ft | 460 kts | 282° |
| 2026-05-04 18:50 | 23.82100 | -173.69144 | 38069 ft | 460 kts | 282° |
| 2026-05-04 18:50 | 23.83525 | -173.75957 | 38069 ft | 460 kts | 282° |
| 2026-05-04 18:51 | 23.84946 | -173.82772 | 38069 ft | 460 kts | 282° |
| 2026-05-04 18:51 | 23.86368 | -173.89602 | 38069 ft | 460 kts | 282° |
| 2026-05-04 18:52 | 23.87782 | -173.96413 | 38064 ft | 461 kts | 282° |
| 2026-05-04 18:52 | 23.89188 | -174.03201 | 38073 ft | 462 kts | 282° |
| 2026-05-04 18:53 | 23.90605 | -174.10058 | 38072 ft | 462 kts | 282° |
| 2026-05-04 18:53 | 23.92015 | -174.16895 | 38077 ft | 462 kts | 282° |
| 2026-05-04 18:54 | 23.93425 | -174.23751 | 38075 ft | 462 kts | 282° |
| 2026-05-04 18:54 | 23.94830 | -174.30599 | 38068 ft | 462 kts | 282° |
| 2026-05-04 18:55 | 23.96233 | -174.37451 | 38073 ft | 462 kts | 282° |
| 2026-05-04 18:55 | 23.98324 | -174.47698 | 38073 ft | 462 kts | 282° |
| 2026-05-04 18:56 | 23.99719 | -174.54553 | 38075 ft | 462 kts | 282° |
| 2026-05-04 18:56 | 24.01111 | -174.61406 | 38076 ft | 461 kts | 282° |
| 2026-05-04 18:57 | 24.02499 | -174.68262 | 38078 ft | 462 kts | 282° |
| 2026-05-04 18:57 | 24.03885 | -174.75123 | 38078 ft | 462 kts | 282° |
| 2026-05-04 18:58 | 24.05260 | -174.81944 | 38084 ft | 462 kts | 282° |
| 2026-05-04 18:58 | 24.06640 | -174.88809 | 38084 ft | 462 kts | 282° |
| 2026-05-04 18:59 | 24.08018 | -174.95679 | 38083 ft | 462 kts | 282° |
| 2026-05-04 18:59 | 24.09393 | -175.02553 | 38084 ft | 462 kts | 282° |
| 2026-05-04 19:00 | 24.10765 | -175.09424 | 38086 ft | 463 kts | 282° |
| 2026-05-04 19:00 | 24.12143 | -175.16265 | 38089 ft | 463 kts | 282° |
| 2026-05-04 19:01 | 24.13523 | -175.23158 | 38087 ft | 463 kts | 282° |
| 2026-05-04 19:01 | 24.14890 | -175.30050 | 38086 ft | 463 kts | 282° |
| 2026-05-04 19:02 | 24.16245 | -175.36905 | 38086 ft | 463 kts | 282° |
| 2026-05-04 19:02 | 24.17603 | -175.43800 | 38085 ft | 463 kts | 282° |
| 2026-05-04 19:03 | 24.18962 | -175.50712 | 38089 ft | 464 kts | 282° |
| 2026-05-04 19:03 | 24.20317 | -175.57618 | 38092 ft | 464 kts | 282° |
| 2026-05-04 19:04 | 24.21441 | -175.63360 | 38090 ft | 464 kts | 282° |
| 2026-05-04 19:04 | 24.22791 | -175.70276 | 38088 ft | 464 kts | 282° |
| 2026-05-04 19:05 | 24.24357 | -175.78317 | 38091 ft | 464 kts | 282° |
| 2026-05-04 19:05 | 24.25475 | -175.84077 | 38092 ft | 464 kts | 282° |
| 2026-05-04 19:06 | 24.26815 | -175.90993 | 38092 ft | 464 kts | 282° |
| 2026-05-04 19:06 | 24.28154 | -175.97919 | 38091 ft | 464 kts | 282° |
| 2026-05-04 19:07 | 24.29488 | -176.04840 | 38092 ft | 464 kts | 282° |
| 2026-05-04 19:07 | 24.30822 | -176.11776 | 38091 ft | 464 kts | 282° |
| 2026-05-04 19:08 | 24.32141 | -176.18654 | 38097 ft | 464 kts | 282° |
| 2026-05-04 19:08 | 24.33466 | -176.25584 | 38095 ft | 465 kts | 282° |
| 2026-05-04 19:09 | 24.34792 | -176.32534 | 38098 ft | 465 kts | 282° |
| 2026-05-04 19:09 | 24.36116 | -176.39486 | 38097 ft | 466 kts | 282° |
| 2026-05-04 19:10 | 24.37215 | -176.45273 | 38097 ft | 466 kts | 282° |
| 2026-05-04 19:10 | 24.38747 | -176.53363 | 38097 ft | 466 kts | 282° |
| 2026-05-04 19:11 | 24.40062 | -176.60327 | 38098 ft | 467 kts | 282° |
| 2026-05-04 19:11 | 24.41376 | -176.67305 | 38100 ft | 467 kts | 282° |
| 2026-05-04 19:12 | 24.43342 | -176.77782 | 38100 ft | 467 kts | 282° |
| 2026-05-04 19:13 | 24.44651 | -176.84776 | 38101 ft | 467 kts | 282° |
| 2026-05-04 19:13 | 24.45944 | -176.91705 | 38102 ft | 467 kts | 282° |
| 2026-05-04 19:14 | 24.47246 | -176.98703 | 38103 ft | 468 kts | 282° |
| 2026-05-04 19:14 | 24.48547 | -177.05711 | 38108 ft | 468 kts | 282° |
| 2026-05-04 19:15 | 24.49842 | -177.12707 | 38103 ft | 468 kts | 282° |
| 2026-05-04 19:15 | 24.51129 | -177.19679 | 38105 ft | 468 kts | 282° |
| 2026-05-04 19:16 | 24.52419 | -177.26687 | 38107 ft | 468 kts | 282° |
| 2026-05-04 19:16 | 24.53705 | -177.33694 | 38109 ft | 468 kts | 282° |
| 2026-05-04 19:17 | 24.54991 | -177.40719 | 38106 ft | 470 kts | 282° |
| 2026-05-04 19:17 | 24.56269 | -177.47717 | 38105 ft | 470 kts | 282° |
| 2026-05-04 19:18 | 24.57549 | -177.54745 | 38106 ft | 470 kts | 282° |
| 2026-05-04 19:18 | 24.58828 | -177.61787 | 38107 ft | 470 kts | 282° |
| 2026-05-04 19:19 | 24.60104 | -177.68832 | 38111 ft | 470 kts | 282° |
| 2026-05-04 19:19 | 24.61375 | -177.75870 | 38108 ft | 471 kts | 282° |
| 2026-05-04 19:20 | 24.62648 | -177.82940 | 38110 ft | 471 kts | 282° |
| 2026-05-04 19:20 | 24.63909 | -177.89961 | 38111 ft | 471 kts | 282° |
| 2026-05-04 19:21 | 24.65176 | -177.97035 | 38116 ft | 472 kts | 282° |
| 2026-05-04 19:21 | 24.66439 | -178.04107 | 38113 ft | 472 kts | 282° |
| 2026-05-04 19:22 | 24.67698 | -178.11180 | 38113 ft | 472 kts | 282° |
| 2026-05-04 19:22 | 24.68949 | -178.18224 | 38114 ft | 472 kts | 282° |
| 2026-05-04 19:23 | 24.70205 | -178.25321 | 38113 ft | 473 kts | 282° |
| 2026-05-04 19:23 | 24.71457 | -178.32411 | 38113 ft | 473 kts | 282° |
| 2026-05-04 19:24 | 24.72711 | -178.39529 | 38116 ft | 474 kts | 282° |
| 2026-05-04 19:24 | 24.73960 | -178.46646 | 38117 ft | 473 kts | 282° |
| 2026-05-04 19:25 | 24.75203 | -178.53748 | 38114 ft | 473 kts | 282° |
| 2026-05-04 19:25 | 24.76444 | -178.60855 | 38123 ft | 474 kts | 282° |
| 2026-05-04 19:26 | 24.77684 | -178.67981 | 38123 ft | 474 kts | 282° |
| 2026-05-04 19:26 | 24.78914 | -178.75069 | 38122 ft | 475 kts | 282° |
| 2026-05-04 19:27 | 24.80149 | -178.82206 | 38127 ft | 475 kts | 282° |
| 2026-05-04 19:27 | 24.81379 | -178.89343 | 38123 ft | 474 kts | 282° |
| 2026-05-04 19:28 | 24.82604 | -178.96462 | 38127 ft | 475 kts | 282° |
| 2026-05-04 19:28 | 24.83825 | -179.03576 | 38125 ft | 476 kts | 281° |
| 2026-05-04 19:29 | 24.85052 | -179.10752 | 38126 ft | 477 kts | 281° |
| 2026-05-04 19:29 | 24.86273 | -179.17918 | 38128 ft | 476 kts | 282° |
| 2026-05-04 19:30 | 24.87490 | -179.25084 | 38126 ft | 475 kts | 282° |
| 2026-05-04 19:30 | 24.88695 | -179.32193 | 38131 ft | 477 kts | 282° |
| 2026-05-04 19:31 | 24.89909 | -179.39378 | 38127 ft | 477 kts | 281° |
| 2026-05-04 19:31 | 24.91123 | -179.46581 | 38125 ft | 478 kts | 282° |
| 2026-05-04 19:32 | 24.92332 | -179.53785 | 38131 ft | 478 kts | 282° |
| 2026-05-04 19:32 | 24.93526 | -179.60921 | 38130 ft | 476 kts | 281° |
| 2026-05-04 19:33 | 24.94725 | -179.68099 | 38131 ft | 477 kts | 282° |
| 2026-05-04 19:33 | 24.95922 | -179.75293 | 38128 ft | 478 kts | 281° |
| 2026-05-04 19:34 | 24.97119 | -179.82512 | 38127 ft | 478 kts | 281° |
| 2026-05-04 19:34 | 24.98301 | -179.89664 | 38131 ft | 477 kts | 282° |
| 2026-05-04 19:35 | 24.99485 | -179.96844 | 38133 ft | 476 kts | 281° |
| 2026-05-04 19:35 | 25.00633 | 179.95956 | 38132 ft | 478 kts | 279° |
| 2026-05-04 19:36 | 25.01591 | 179.88690 | 38129 ft | 479 kts | 279° |
| 2026-05-04 19:36 | 25.02510 | 179.81472 | 38142 ft | 479 kts | 279° |
| 2026-05-04 19:37 | 25.03463 | 179.74169 | 38137 ft | 481 kts | 279° |
| 2026-05-04 19:37 | 25.04430 | 179.66875 | 38136 ft | 481 kts | 279° |
| 2026-05-04 19:38 | 25.05398 | 179.59571 | 38137 ft | 481 kts | 279° |
| 2026-05-04 19:38 | 25.06365 | 179.52248 | 38140 ft | 483 kts | 279° |
| 2026-05-04 19:39 | 25.07321 | 179.44960 | 38141 ft | 483 kts | 280° |
| 2026-05-04 19:39 | 25.08281 | 179.37619 | 38140 ft | 484 kts | 279° |
| 2026-05-04 19:40 | 25.09238 | 179.30273 | 38138 ft | 483 kts | 280° |
| 2026-05-04 19:40 | 25.10191 | 179.22928 | 38137 ft | 484 kts | 279° |
| 2026-05-04 19:41 | 25.11140 | 179.15580 | 38136 ft | 484 kts | 279° |
| 2026-05-04 19:41 | 25.12081 | 179.08272 | 38136 ft | 485 kts | 279° |
| 2026-05-04 19:42 | 25.13026 | 179.00906 | 38141 ft | 485 kts | 279° |
| 2026-05-04 19:42 | 25.13964 | 178.93548 | 38139 ft | 485 kts | 279° |
| 2026-05-04 19:43 | 25.14902 | 178.86177 | 38136 ft | 485 kts | 279° |
| 2026-05-04 19:43 | 25.15836 | 178.78798 | 38135 ft | 485 kts | 279° |
| 2026-05-04 19:44 | 25.16762 | 178.71468 | 38137 ft | 486 kts | 279° |
| 2026-05-04 19:44 | 25.17691 | 178.64070 | 38139 ft | 486 kts | 279° |
| 2026-05-04 19:45 | 25.18614 | 178.56692 | 38142 ft | 486 kts | 279° |
| 2026-05-04 19:45 | 25.19535 | 178.49295 | 38143 ft | 486 kts | 279° |
| 2026-05-04 19:46 | 25.20452 | 178.41909 | 38139 ft | 486 kts | 279° |
| 2026-05-04 19:46 | 25.21359 | 178.34565 | 38141 ft | 486 kts | 279° |
| 2026-05-04 19:47 | 25.22270 | 178.27170 | 38140 ft | 486 kts | 279° |
| 2026-05-04 19:47 | 25.23176 | 178.19772 | 38142 ft | 486 kts | 278° |
| 2026-05-04 19:48 | 25.24079 | 178.12370 | 38141 ft | 486 kts | 279° |
| 2026-05-04 19:48 | 25.24978 | 178.04973 | 38142 ft | 487 kts | 279° |
| 2026-05-04 19:49 | 25.25876 | 177.97553 | 38139 ft | 487 kts | 279° |
| 2026-05-04 19:49 | 25.26769 | 177.90141 | 38144 ft | 487 kts | 278° |
| 2026-05-04 19:50 | 25.27654 | 177.82756 | 38146 ft | 487 kts | 278° |
| 2026-05-04 19:50 | 25.28541 | 177.75335 | 38147 ft | 487 kts | 279° |
| 2026-05-04 19:51 | 25.29424 | 177.67907 | 38144 ft | 487 kts | 279° |
| 2026-05-04 19:51 | 25.30304 | 177.60476 | 38144 ft | 488 kts | 278° |
| 2026-05-04 19:52 | 25.31180 | 177.53043 | 38142 ft | 488 kts | 279° |
| 2026-05-04 19:52 | 25.32048 | 177.45649 | 38146 ft | 488 kts | 279° |
| 2026-05-04 19:53 | 25.32917 | 177.38212 | 38139 ft | 488 kts | 278° |
| 2026-05-04 19:53 | 25.33783 | 177.30767 | 38144 ft | 488 kts | 279° |
| 2026-05-04 19:54 | 25.34646 | 177.23314 | 38145 ft | 489 kts | 278° |
| 2026-05-04 19:54 | 25.35505 | 177.15859 | 38140 ft | 489 kts | 279° |
| 2026-05-04 19:55 | 25.36355 | 177.08456 | 38143 ft | 489 kts | 278° |
| 2026-05-04 19:55 | 25.37207 | 177.00997 | 38145 ft | 489 kts | 278° |
| 2026-05-04 19:56 | 25.38056 | 176.93534 | 38146 ft | 489 kts | 279° |
| 2026-05-04 19:56 | 25.38901 | 176.86069 | 38140 ft | 490 kts | 278° |
| 2026-05-04 19:57 | 25.39741 | 176.78619 | 38139 ft | 490 kts | 278° |
| 2026-05-04 19:57 | 25.40581 | 176.71134 | 38147 ft | 490 kts | 278° |
| 2026-05-04 19:58 | 25.41417 | 176.63641 | 38139 ft | 490 kts | 279° |
| 2026-05-04 19:58 | 25.42249 | 176.56161 | 38143 ft | 490 kts | 278° |
| 2026-05-04 19:59 | 25.43071 | 176.48720 | 38139 ft | 490 kts | 278° |
| 2026-05-04 19:59 | 25.43896 | 176.41231 | 38142 ft | 490 kts | 278° |
| 2026-05-04 20:00 | 25.44717 | 176.33735 | 38145 ft | 490 kts | 279° |
| 2026-05-04 20:00 | 25.45534 | 176.26248 | 38142 ft | 490 kts | 278° |
| 2026-05-04 20:01 | 25.46342 | 176.18796 | 38144 ft | 491 kts | 278° |
| 2026-05-04 20:01 | 25.47152 | 176.11301 | 38139 ft | 490 kts | 278° |
| 2026-05-04 20:02 | 25.47957 | 176.03809 | 38141 ft | 491 kts | 278° |
| 2026-05-04 20:02 | 25.48759 | 175.96308 | 38145 ft | 491 kts | 278° |
| 2026-05-04 20:03 | 25.49553 | 175.88844 | 38143 ft | 491 kts | 278° |
| 2026-05-04 20:03 | 25.50349 | 175.81330 | 38140 ft | 491 kts | 278° |
| 2026-05-04 20:04 | 25.51142 | 175.73809 | 38138 ft | 493 kts | 277° |
| 2026-05-04 20:04 | 25.51934 | 175.66253 | 38143 ft | 493 kts | 278° |
| 2026-05-04 20:05 | 25.52716 | 175.58769 | 38143 ft | 493 kts | 277° |
| 2026-05-04 20:05 | 25.53500 | 175.51211 | 38139 ft | 494 kts | 278° |
| 2026-05-04 20:06 | 25.54282 | 175.43646 | 38137 ft | 494 kts | 277° |
| 2026-05-04 20:06 | 25.55058 | 175.36088 | 38138 ft | 494 kts | 277° |
| 2026-05-04 20:07 | 25.55825 | 175.28592 | 38133 ft | 494 kts | 278° |
| 2026-05-04 20:07 | 25.56594 | 175.21024 | 38139 ft | 495 kts | 278° |
| 2026-05-04 20:08 | 25.57367 | 175.13395 | 38142 ft | 500 kts | 278° |
| 2026-05-04 20:08 | 25.58138 | 175.05729 | 38136 ft | 501 kts | 277° |
| 2026-05-04 20:09 | 25.58906 | 174.98053 | 38147 ft | 501 kts | 278° |
| 2026-05-04 20:09 | 25.59670 | 174.90381 | 38138 ft | 501 kts | 277° |
| 2026-05-04 20:10 | 25.60425 | 174.82759 | 38132 ft | 501 kts | 278° |
| 2026-05-04 20:10 | 25.61182 | 174.75074 | 38139 ft | 501 kts | 277° |
| 2026-05-04 20:11 | 25.61935 | 174.67394 | 38140 ft | 502 kts | 277° |
| 2026-05-04 20:11 | 25.62684 | 174.59703 | 38140 ft | 502 kts | 277° |
| 2026-05-04 20:12 | 25.63425 | 174.52061 | 38136 ft | 502 kts | 277° |
| 2026-05-04 20:12 | 25.64166 | 174.44370 | 38137 ft | 502 kts | 277° |
| 2026-05-04 20:13 | 25.64902 | 174.36686 | 38130 ft | 502 kts | 277° |
| 2026-05-04 20:13 | 25.65637 | 174.28979 | 38145 ft | 502 kts | 277° |
| 2026-05-04 20:14 | 25.66363 | 174.21321 | 38139 ft | 503 kts | 277° |
| 2026-05-04 20:14 | 25.67089 | 174.13619 | 38138 ft | 503 kts | 277° |
| 2026-05-04 20:15 | 25.67813 | 174.05892 | 38139 ft | 503 kts | 277° |
| 2026-05-04 20:15 | 25.68532 | 173.98169 | 38141 ft | 503 kts | 277° |
| 2026-05-04 20:16 | 25.69247 | 173.90452 | 38143 ft | 503 kts | 277° |
| 2026-05-04 20:16 | 25.69958 | 173.82733 | 38137 ft | 504 kts | 277° |
| 2026-05-04 20:17 | 25.70661 | 173.75059 | 38136 ft | 504 kts | 277° |
| 2026-05-04 20:17 | 25.71365 | 173.67322 | 38137 ft | 504 kts | 277° |
| 2026-05-04 20:18 | 25.72064 | 173.59587 | 38143 ft | 504 kts | 277° |
| 2026-05-04 20:18 | 25.72760 | 173.51857 | 38152 ft | 504 kts | 277° |
| 2026-05-04 20:19 | 25.73453 | 173.44097 | 38143 ft | 505 kts | 277° |
| 2026-05-04 20:19 | 25.74143 | 173.36335 | 38155 ft | 505 kts | 277° |
| 2026-05-04 20:20 | 25.74824 | 173.28629 | 38146 ft | 505 kts | 277° |
| 2026-05-04 20:20 | 25.75505 | 173.20868 | 38148 ft | 505 kts | 277° |
| 2026-05-04 20:21 | 25.76182 | 173.13106 | 38144 ft | 506 kts | 277° |
| 2026-05-04 20:21 | 25.77187 | 173.01495 | 38142 ft | 506 kts | 277° |
| 2026-05-04 20:22 | 25.77855 | 172.93726 | 38153 ft | 506 kts | 277° |
| 2026-05-04 20:22 | 25.78518 | 172.85950 | 38145 ft | 506 kts | 277° |
| 2026-05-04 20:23 | 25.79179 | 172.78162 | 38155 ft | 507 kts | 277° |
| 2026-05-04 20:23 | 25.79835 | 172.70375 | 38141 ft | 507 kts | 277° |
| 2026-05-04 20:24 | 25.80482 | 172.62644 | 38143 ft | 507 kts | 277° |
| 2026-05-04 20:24 | 25.81130 | 172.54854 | 38141 ft | 507 kts | 277° |
| 2026-05-04 20:25 | 25.81774 | 172.47065 | 38146 ft | 507 kts | 277° |
| 2026-05-04 20:25 | 25.82414 | 172.39274 | 38144 ft | 507 kts | 277° |
| 2026-05-04 20:26 | 25.83049 | 172.31482 | 38150 ft | 507 kts | 277° |
| 2026-05-04 20:26 | 25.83677 | 172.23732 | 38147 ft | 507 kts | 277° |
| 2026-05-04 20:27 | 25.84305 | 172.15929 | 38156 ft | 507 kts | 277° |
| 2026-05-04 20:27 | 25.84929 | 172.08125 | 38160 ft | 507 kts | 277° |
| 2026-05-04 20:28 | 25.85549 | 172.00324 | 38159 ft | 507 kts | 277° |
| 2026-05-04 20:28 | 25.86164 | 171.92523 | 38156 ft | 508 kts | 277° |
| 2026-05-04 20:29 | 25.86772 | 171.84753 | 38144 ft | 508 kts | 277° |
| 2026-05-04 20:29 | 25.87380 | 171.76941 | 38148 ft | 508 kts | 277° |
| 2026-05-04 20:30 | 25.87881 | 171.70451 | 38153 ft | 508 kts | 277° |
| 2026-05-04 20:30 | 25.88480 | 171.62649 | 38144 ft | 508 kts | 277° |
| 2026-05-04 20:31 | 25.89077 | 171.54817 | 38141 ft | 508 kts | 277° |
| 2026-05-04 20:31 | 25.89669 | 171.46998 | 38161 ft | 508 kts | 277° |
| 2026-05-04 20:32 | 25.90257 | 171.39177 | 38160 ft | 508 kts | 277° |
| 2026-05-04 20:32 | 25.90841 | 171.31350 | 38149 ft | 508 kts | 277° |
| 2026-05-04 20:33 | 25.91416 | 171.23578 | 38151 ft | 509 kts | 277° |
| 2026-05-04 20:33 | 25.91993 | 171.15741 | 38153 ft | 509 kts | 277° |
| 2026-05-04 20:34 | 25.92565 | 171.07892 | 38157 ft | 509 kts | 276° |
| 2026-05-04 20:34 | 25.93134 | 171.00042 | 38158 ft | 509 kts | 276° |
| 2026-05-04 20:35 | 25.93698 | 170.92199 | 38154 ft | 509 kts | 276° |
| 2026-05-04 20:35 | 25.94254 | 170.84400 | 38155 ft | 509 kts | 276° |
| 2026-05-04 20:36 | 25.94809 | 170.76555 | 38154 ft | 509 kts | 276° |
| 2026-05-04 20:36 | 25.95361 | 170.68701 | 38155 ft | 509 kts | 276° |
| 2026-05-04 20:37 | 25.95905 | 170.60905 | 38156 ft | 511 kts | 276° |
| 2026-05-04 20:37 | 25.96452 | 170.53005 | 38153 ft | 514 kts | 276° |
| 2026-05-04 20:38 | 25.96995 | 170.45085 | 38154 ft | 514 kts | 276° |
| 2026-05-04 20:38 | 25.97534 | 170.37159 | 38154 ft | 514 kts | 276° |
| 2026-05-04 20:39 | 25.98069 | 170.29231 | 38154 ft | 514 kts | 276° |
| 2026-05-04 20:39 | 25.98596 | 170.21356 | 38154 ft | 514 kts | 276° |
| 2026-05-04 20:40 | 25.99123 | 170.13421 | 38151 ft | 515 kts | 276° |
| 2026-05-04 20:40 | 25.99646 | 170.05489 | 38151 ft | 515 kts | 276° |
| 2026-05-04 20:41 | 26.00632 | 169.97634 | 38154 ft | 511 kts | 285° |
| 2026-05-04 20:41 | 26.02341 | 169.90017 | 38151 ft | 511 kts | 287° |
| 2026-05-04 20:42 | 26.04173 | 169.82387 | 38151 ft | 511 kts | 288° |
| 2026-05-04 20:42 | 26.06012 | 169.74746 | 38151 ft | 511 kts | 287° |
| 2026-05-04 20:43 | 26.07830 | 169.67103 | 38151 ft | 511 kts | 287° |
| 2026-05-04 20:43 | 26.09625 | 169.59505 | 38151 ft | 511 kts | 287° |
| 2026-05-04 20:44 | 26.11426 | 169.51855 | 38151 ft | 511 kts | 287° |
| 2026-05-04 20:44 | 26.13225 | 169.44199 | 38157 ft | 511 kts | 287° |
| 2026-05-04 20:45 | 26.15017 | 169.36550 | 38154 ft | 511 kts | 287° |
| 2026-05-04 20:45 | 26.16800 | 169.28926 | 38149 ft | 512 kts | 287° |
| 2026-05-04 20:46 | 26.18590 | 169.21247 | 38154 ft | 514 kts | 287° |
| 2026-05-04 20:46 | 26.20385 | 169.13531 | 38154 ft | 515 kts | 287° |
| 2026-05-04 20:47 | 26.22178 | 169.05803 | 38159 ft | 515 kts | 287° |
| 2026-05-04 20:47 | 26.23952 | 168.98080 | 38156 ft | 515 kts | 287° |
| 2026-05-04 20:48 | 26.25715 | 168.90396 | 38156 ft | 515 kts | 287° |
| 2026-05-04 20:48 | 26.27491 | 168.82667 | 38156 ft | 515 kts | 287° |
| 2026-05-04 20:49 | 26.29267 | 168.74942 | 38156 ft | 515 kts | 287° |
| 2026-05-04 20:49 | 26.31030 | 168.67247 | 38151 ft | 515 kts | 287° |
| 2026-05-04 20:50 | 26.32795 | 168.59515 | 38156 ft | 515 kts | 287° |
| 2026-05-04 20:50 | 26.34559 | 168.51762 | 38156 ft | 516 kts | 287° |
| 2026-05-04 20:51 | 26.36319 | 168.44013 | 38156 ft | 516 kts | 287° |
| 2026-05-04 20:51 | 26.38078 | 168.36254 | 38157 ft | 516 kts | 286° |
| 2026-05-04 20:52 | 26.39832 | 168.28498 | 38160 ft | 516 kts | 286° |
| 2026-05-04 20:52 | 26.41582 | 168.20732 | 38155 ft | 517 kts | 286° |
| 2026-05-04 20:53 | 26.43312 | 168.13029 | 38156 ft | 517 kts | 286° |
| 2026-05-04 20:53 | 26.45053 | 168.05251 | 38159 ft | 517 kts | 286° |
| 2026-05-04 20:54 | 26.46794 | 167.97463 | 38155 ft | 517 kts | 286° |
| 2026-05-04 20:54 | 26.48530 | 167.89682 | 38157 ft | 517 kts | 286° |
| 2026-05-04 20:55 | 26.50251 | 167.81936 | 38162 ft | 517 kts | 286° |
| 2026-05-04 20:55 | 26.51982 | 167.74132 | 38155 ft | 517 kts | 286° |
| 2026-05-04 20:56 | 26.53708 | 167.66335 | 38160 ft | 517 kts | 286° |
| 2026-05-04 20:56 | 26.55429 | 167.58535 | 38152 ft | 518 kts | 286° |
| 2026-05-04 20:57 | 26.57148 | 167.50716 | 38162 ft | 518 kts | 286° |
| 2026-05-04 20:57 | 26.58861 | 167.42909 | 38159 ft | 518 kts | 286° |
| 2026-05-04 20:58 | 26.60558 | 167.35154 | 38150 ft | 518 kts | 285° |
| 2026-05-04 20:58 | 26.62262 | 167.27334 | 38157 ft | 517 kts | 286° |
| 2026-05-04 20:59 | 26.63963 | 167.19514 | 38154 ft | 517 kts | 285° |
| 2026-05-04 20:59 | 26.65657 | 167.11702 | 38156 ft | 517 kts | 285° |
| 2026-05-04 21:00 | 26.67348 | 167.03872 | 38160 ft | 518 kts | 285° |
| 2026-05-04 21:00 | 26.69022 | 166.96097 | 38160 ft | 518 kts | 285° |
| 2026-05-04 21:01 | 26.70704 | 166.88266 | 38154 ft | 518 kts | 285° |
| 2026-05-04 21:01 | 26.72379 | 166.80444 | 38154 ft | 517 kts | 285° |
| 2026-05-04 21:02 | 26.74056 | 166.72601 | 38157 ft | 517 kts | 285° |
| 2026-05-04 21:02 | 26.75721 | 166.64780 | 38154 ft | 517 kts | 285° |
| 2026-05-04 21:03 | 26.77386 | 166.56942 | 38154 ft | 517 kts | 285° |
| 2026-05-04 21:03 | 26.79034 | 166.49166 | 38154 ft | 517 kts | 285° |
| 2026-05-04 21:04 | 26.80690 | 166.41335 | 38157 ft | 517 kts | 285° |
| 2026-05-04 21:04 | 26.82344 | 166.33500 | 38156 ft | 517 kts | 285° |
| 2026-05-04 21:05 | 26.83991 | 166.25659 | 38154 ft | 517 kts | 284° |
| 2026-05-04 21:05 | 26.85631 | 166.17816 | 38154 ft | 517 kts | 284° |
| 2026-05-04 21:06 | 26.87269 | 166.09974 | 38154 ft | 517 kts | 284° |
| 2026-05-04 21:06 | 26.88890 | 166.02182 | 38154 ft | 517 kts | 284° |
| 2026-05-04 21:07 | 26.90518 | 165.94337 | 38157 ft | 517 kts | 284° |
| 2026-05-04 21:07 | 26.92142 | 165.86497 | 38156 ft | 517 kts | 284° |
| 2026-05-04 21:08 | 26.93763 | 165.78645 | 38159 ft | 517 kts | 284° |
| 2026-05-04 21:08 | 26.95366 | 165.70855 | 38159 ft | 516 kts | 284° |
| 2026-05-04 21:09 | 26.96975 | 165.63008 | 38160 ft | 516 kts | 284° |
| 2026-05-04 21:09 | 26.98578 | 165.55172 | 38162 ft | 516 kts | 284° |
| 2026-05-04 21:10 | 27.00179 | 165.47323 | 38162 ft | 516 kts | 284° |
| 2026-05-04 21:10 | 27.01777 | 165.39471 | 38162 ft | 516 kts | 284° |
| 2026-05-04 21:11 | 27.03358 | 165.31670 | 38162 ft | 516 kts | 284° |
| 2026-05-04 21:11 | 27.04940 | 165.23824 | 38162 ft | 516 kts | 284° |
| 2026-05-04 21:12 | 27.06522 | 165.15964 | 38162 ft | 516 kts | 284° |
| 2026-05-04 21:12 | 27.08101 | 165.08109 | 38166 ft | 516 kts | 284° |
| 2026-05-04 21:13 | 27.09678 | 165.00242 | 38162 ft | 516 kts | 283° |
| 2026-05-04 21:13 | 27.11237 | 164.92437 | 38162 ft | 516 kts | 283° |
| 2026-05-04 21:14 | 27.12804 | 164.84577 | 38162 ft | 516 kts | 283° |
| 2026-05-04 21:14 | 27.14365 | 164.76714 | 38162 ft | 516 kts | 283° |
| 2026-05-04 21:15 | 27.15921 | 164.68848 | 38162 ft | 516 kts | 283° |
| 2026-05-04 21:15 | 27.17472 | 164.60988 | 38162 ft | 515 kts | 283° |
| 2026-05-04 21:16 | 27.19006 | 164.53185 | 38162 ft | 515 kts | 283° |
| 2026-05-04 21:16 | 27.20547 | 164.45325 | 38159 ft | 515 kts | 283° |
| 2026-05-04 21:17 | 27.22081 | 164.37468 | 38162 ft | 516 kts | 283° |
| 2026-05-04 21:17 | 27.23614 | 164.29594 | 38162 ft | 515 kts | 283° |
| 2026-05-04 21:18 | 27.25139 | 164.21730 | 38165 ft | 515 kts | 283° |
| 2026-05-04 21:18 | 27.26662 | 164.13864 | 38165 ft | 515 kts | 283° |
| 2026-05-04 21:19 | 27.28169 | 164.06057 | 38162 ft | 515 kts | 283° |
| 2026-05-04 21:19 | 27.29683 | 163.98190 | 38162 ft | 514 kts | 282° |
| 2026-05-04 21:20 | 27.31188 | 163.90340 | 38162 ft | 512 kts | 282° |
| 2026-05-04 21:20 | 27.32684 | 163.82510 | 38162 ft | 512 kts | 282° |
| 2026-05-04 21:21 | 27.34175 | 163.74679 | 38157 ft | 512 kts | 282° |
| 2026-05-04 21:21 | 27.35653 | 163.66887 | 38162 ft | 512 kts | 282° |
| 2026-05-04 21:22 | 27.37134 | 163.59066 | 38158 ft | 510 kts | 282° |
| 2026-05-04 21:22 | 27.38607 | 163.51278 | 38160 ft | 508 kts | 282° |
| 2026-05-04 21:23 | 27.40072 | 163.43495 | 38160 ft | 508 kts | 282° |
| 2026-05-04 21:23 | 27.41522 | 163.35762 | 38159 ft | 508 kts | 282° |
| 2026-05-04 21:24 | 27.42978 | 163.27972 | 38162 ft | 508 kts | 282° |
| 2026-05-04 21:24 | 27.44420 | 163.20215 | 38157 ft | 505 kts | 282° |
| 2026-05-04 21:25 | 27.45858 | 163.12470 | 38157 ft | 505 kts | 282° |
| 2026-05-04 21:25 | 27.47290 | 163.04729 | 38156 ft | 505 kts | 282° |
| 2026-05-04 21:26 | 27.48712 | 162.97022 | 38162 ft | 505 kts | 282° |
| 2026-05-04 21:26 | 27.50135 | 162.89276 | 38153 ft | 503 kts | 282° |
| 2026-05-04 21:27 | 27.51548 | 162.81569 | 38157 ft | 502 kts | 282° |
| 2026-05-04 21:27 | 27.52954 | 162.73874 | 38157 ft | 502 kts | 282° |
| 2026-05-04 21:28 | 27.54360 | 162.66146 | 38154 ft | 502 kts | 282° |
| 2026-05-04 21:28 | 27.55749 | 162.58490 | 38162 ft | 503 kts | 282° |
| 2026-05-04 21:29 | 27.57146 | 162.50760 | 38156 ft | 503 kts | 282° |
| 2026-05-04 21:29 | 27.58539 | 162.43034 | 38156 ft | 503 kts | 282° |
| 2026-05-04 21:30 | 27.59928 | 162.35303 | 38156 ft | 503 kts | 282° |
| 2026-05-04 21:30 | 27.61312 | 162.27571 | 38157 ft | 503 kts | 282° |
| 2026-05-04 21:31 | 27.63378 | 162.15983 | 38155 ft | 501 kts | 282° |
| 2026-05-04 21:32 | 27.64735 | 162.08343 | 38155 ft | 500 kts | 282° |
| 2026-05-04 21:32 | 27.66098 | 162.00636 | 38158 ft | 501 kts | 282° |
| 2026-05-04 21:33 | 27.67454 | 161.92942 | 38154 ft | 500 kts | 282° |
| 2026-05-04 21:33 | 27.68811 | 161.85233 | 38153 ft | 500 kts | 282° |
| 2026-05-04 21:34 | 27.70162 | 161.77573 | 38153 ft | 501 kts | 282° |
| 2026-05-04 21:34 | 27.71514 | 161.69862 | 38144 ft | 500 kts | 282° |
| 2026-05-04 21:35 | 27.72860 | 161.62135 | 38155 ft | 502 kts | 281° |
| 2026-05-04 21:35 | 27.74191 | 161.54451 | 38152 ft | 502 kts | 282° |
| 2026-05-04 21:36 | 27.75523 | 161.46741 | 38154 ft | 500 kts | 281° |
| 2026-05-04 21:36 | 27.76850 | 161.39032 | 38151 ft | 500 kts | 282° |
| 2026-05-04 21:37 | 27.78173 | 161.31326 | 38151 ft | 500 kts | 281° |
| 2026-05-04 21:37 | 27.79483 | 161.23668 | 38152 ft | 500 kts | 281° |
| 2026-05-04 21:38 | 27.80795 | 161.15971 | 38152 ft | 497 kts | 282° |
| 2026-05-04 21:38 | 27.82097 | 161.08305 | 38155 ft | 496 kts | 282° |
| 2026-05-04 21:39 | 27.83393 | 161.00644 | 38153 ft | 496 kts | 282° |
| 2026-05-04 21:39 | 27.84685 | 160.92984 | 38154 ft | 496 kts | 281° |
| 2026-05-04 21:40 | 27.85964 | 160.85376 | 38152 ft | 496 kts | 282° |
| 2026-05-04 21:40 | 27.87243 | 160.77738 | 38153 ft | 494 kts | 281° |
| 2026-05-04 21:41 | 27.88521 | 160.70084 | 38150 ft | 496 kts | 281° |
| 2026-05-04 21:41 | 27.89796 | 160.62411 | 38150 ft | 497 kts | 281° |
| 2026-05-04 21:42 | 27.91069 | 160.54728 | 38150 ft | 497 kts | 281° |
| 2026-05-04 21:42 | 27.92334 | 160.47060 | 38148 ft | 495 kts | 281° |
| 2026-05-04 21:43 | 27.93584 | 160.39468 | 38152 ft | 494 kts | 281° |
| 2026-05-04 21:43 | 27.94836 | 160.31835 | 38149 ft | 494 kts | 281° |
| 2026-05-04 21:44 | 27.96085 | 160.24188 | 38147 ft | 494 kts | 281° |
| 2026-05-04 21:44 | 27.97329 | 160.16541 | 38145 ft | 494 kts | 281° |
| 2026-05-04 21:45 | 27.98567 | 160.08909 | 38146 ft | 493 kts | 281° |
| 2026-05-04 21:45 | 27.99860 | 160.01301 | 38145 ft | 492 kts | 285° |
| 2026-05-04 21:46 | 28.02067 | 159.93994 | 38148 ft | 491 kts | 291° |
| 2026-05-04 21:46 | 28.04523 | 159.86831 | 38149 ft | 493 kts | 292° |
| 2026-05-04 21:47 | 28.07041 | 159.79612 | 38145 ft | 492 kts | 292° |
| 2026-05-04 21:47 | 28.09546 | 159.72384 | 38146 ft | 492 kts | 292° |
| 2026-05-04 21:48 | 28.12032 | 159.65161 | 38143 ft | 492 kts | 292° |
| 2026-05-04 21:48 | 28.14496 | 159.57978 | 38143 ft | 492 kts | 292° |
| 2026-05-04 21:49 | 28.16971 | 159.50746 | 38144 ft | 492 kts | 292° |
| 2026-05-04 21:49 | 28.19442 | 159.43514 | 38150 ft | 491 kts | 292° |
| 2026-05-04 21:50 | 28.21906 | 159.36290 | 38146 ft | 491 kts | 292° |
| 2026-05-04 21:50 | 28.24372 | 159.29045 | 38145 ft | 493 kts | 292° |
| 2026-05-04 21:51 | 28.26838 | 159.21785 | 38143 ft | 494 kts | 292° |
| 2026-05-04 21:51 | 28.29285 | 159.14565 | 38143 ft | 493 kts | 292° |
| 2026-05-04 21:52 | 28.31740 | 159.07307 | 38145 ft | 492 kts | 292° |
| 2026-05-04 21:52 | 28.34192 | 159.00047 | 38145 ft | 492 kts | 292° |
| 2026-05-04 21:53 | 28.36638 | 158.92787 | 38145 ft | 492 kts | 292° |
| 2026-05-04 21:53 | 28.38664 | 158.86746 | 38145 ft | 492 kts | 291° |
| 2026-05-04 21:54 | 28.41087 | 158.79480 | 38144 ft | 491 kts | 291° |
| 2026-05-04 21:54 | 28.43909 | 158.71029 | 38149 ft | 493 kts | 291° |
| 2026-05-04 21:55 | 28.45932 | 158.64975 | 38138 ft | 493 kts | 291° |
| 2026-05-04 21:55 | 28.48363 | 158.57690 | 38136 ft | 493 kts | 291° |
| 2026-05-04 21:56 | 28.50789 | 158.50405 | 38141 ft | 493 kts | 291° |
| 2026-05-04 21:56 | 28.53214 | 158.43107 | 38134 ft | 493 kts | 291° |
| 2026-05-04 21:57 | 28.55618 | 158.35856 | 38140 ft | 493 kts | 291° |
| 2026-05-04 21:57 | 28.58032 | 158.28559 | 38142 ft | 493 kts | 291° |
| 2026-05-04 21:58 | 28.60447 | 158.21247 | 38140 ft | 494 kts | 291° |
| 2026-05-04 21:58 | 28.62859 | 158.13926 | 38137 ft | 494 kts | 291° |
| 2026-05-04 21:59 | 28.65263 | 158.06614 | 38140 ft | 493 kts | 291° |
| 2026-05-04 21:59 | 28.67646 | 157.99353 | 38141 ft | 493 kts | 291° |
| 2026-05-04 22:00 | 28.70047 | 157.92020 | 38131 ft | 493 kts | 291° |
| 2026-05-04 22:00 | 28.72440 | 157.84697 | 38134 ft | 493 kts | 291° |
| 2026-05-04 22:01 | 28.74810 | 157.77428 | 38133 ft | 492 kts | 291° |
| 2026-05-04 22:01 | 28.77188 | 157.70120 | 38133 ft | 492 kts | 291° |
| 2026-05-04 22:02 | 28.79568 | 157.62790 | 38132 ft | 493 kts | 291° |
| 2026-05-04 22:02 | 28.81948 | 157.55445 | 38128 ft | 494 kts | 291° |
| 2026-05-04 22:03 | 28.84309 | 157.48145 | 38125 ft | 492 kts | 291° |
| 2026-05-04 22:03 | 28.86673 | 157.40815 | 38128 ft | 492 kts | 291° |
| 2026-05-04 22:04 | 28.89033 | 157.33487 | 38127 ft | 492 kts | 291° |
| 2026-05-04 22:04 | 28.91374 | 157.26198 | 38115 ft | 492 kts | 291° |
| 2026-05-04 22:05 | 28.93726 | 157.18863 | 38118 ft | 492 kts | 291° |
| 2026-05-04 22:05 | 28.96073 | 157.11527 | 38115 ft | 492 kts | 290° |
| 2026-05-04 22:06 | 28.98415 | 157.04189 | 38116 ft | 492 kts | 290° |
| 2026-05-04 22:06 | 29.00742 | 156.96883 | 38117 ft | 492 kts | 290° |
| 2026-05-04 22:07 | 29.03079 | 156.89529 | 38121 ft | 492 kts | 290° |
| 2026-05-04 22:07 | 29.05409 | 156.82182 | 38114 ft | 491 kts | 291° |
| 2026-05-04 22:08 | 29.07727 | 156.74856 | 38119 ft | 490 kts | 290° |
| 2026-05-04 22:08 | 29.09653 | 156.68760 | 38117 ft | 490 kts | 291° |
| 2026-05-04 22:09 | 29.12338 | 156.60241 | 38110 ft | 490 kts | 290° |
| 2026-05-04 22:09 | 29.14644 | 156.52905 | 38115 ft | 489 kts | 291° |
| 2026-05-04 22:10 | 29.16938 | 156.45593 | 38109 ft | 488 kts | 290° |
| 2026-05-04 22:10 | 29.19225 | 156.38285 | 38110 ft | 488 kts | 291° |
| 2026-05-04 22:11 | 29.21510 | 156.30974 | 38111 ft | 488 kts | 290° |
| 2026-05-04 22:11 | 29.23777 | 156.23699 | 38108 ft | 488 kts | 290° |
| 2026-05-04 22:12 | 29.26056 | 156.16373 | 38106 ft | 488 kts | 290° |
| 2026-05-04 22:12 | 29.28331 | 156.09042 | 38106 ft | 488 kts | 290° |
| 2026-05-04 22:13 | 29.30589 | 156.01749 | 38106 ft | 488 kts | 290° |
| 2026-05-04 22:13 | 29.32855 | 155.94412 | 38106 ft | 488 kts | 290° |
| 2026-05-04 22:14 | 29.35120 | 155.87066 | 38105 ft | 488 kts | 290° |
| 2026-05-04 22:14 | 29.37374 | 155.79738 | 38103 ft | 488 kts | 290° |
| 2026-05-04 22:15 | 29.39615 | 155.72434 | 38099 ft | 488 kts | 290° |
| 2026-05-04 22:15 | 29.41860 | 155.65105 | 38104 ft | 488 kts | 289° |
| 2026-05-04 22:16 | 29.44106 | 155.57755 | 38101 ft | 487 kts | 290° |
| 2026-05-04 22:16 | 29.46343 | 155.50418 | 38102 ft | 487 kts | 289° |
| 2026-05-04 22:17 | 29.48557 | 155.43137 | 38100 ft | 486 kts | 289° |
| 2026-05-04 22:17 | 29.50784 | 155.35799 | 38094 ft | 487 kts | 289° |
| 2026-05-04 22:18 | 29.53008 | 155.28454 | 38100 ft | 486 kts | 289° |
| 2026-05-04 22:18 | 29.55228 | 155.21106 | 38093 ft | 487 kts | 289° |
| 2026-05-04 22:19 | 29.57425 | 155.13820 | 38096 ft | 486 kts | 289° |
| 2026-05-04 22:19 | 29.59634 | 155.06472 | 38094 ft | 486 kts | 289° |
| 2026-05-04 22:20 | 29.61842 | 154.99118 | 38095 ft | 486 kts | 289° |
| 2026-05-04 22:20 | 29.64041 | 154.91773 | 38088 ft | 485 kts | 289° |
| 2026-05-04 22:21 | 29.66232 | 154.84437 | 38096 ft | 485 kts | 289° |
| 2026-05-04 22:21 | 29.68404 | 154.77148 | 38089 ft | 484 kts | 289° |
| 2026-05-04 22:22 | 29.70587 | 154.69809 | 38089 ft | 485 kts | 289° |
| 2026-05-04 22:22 | 29.72767 | 154.62458 | 38091 ft | 485 kts | 289° |
| 2026-05-04 22:23 | 29.74944 | 154.55105 | 38094 ft | 485 kts | 289° |
| 2026-05-04 22:23 | 29.77100 | 154.47807 | 38088 ft | 484 kts | 288° |
| 2026-05-04 22:24 | 29.79266 | 154.40455 | 38091 ft | 484 kts | 288° |
| 2026-05-04 22:24 | 29.81426 | 154.33107 | 38087 ft | 484 kts | 288° |
| 2026-05-04 22:25 | 29.83561 | 154.25825 | 38090 ft | 482 kts | 288° |
| 2026-05-04 22:25 | 29.85704 | 154.18502 | 38088 ft | 483 kts | 289° |
| 2026-05-04 22:26 | 29.87845 | 154.11170 | 38086 ft | 482 kts | 288° |
| 2026-05-04 22:26 | 29.89983 | 154.03828 | 38086 ft | 483 kts | 288° |
| 2026-05-04 22:27 | 29.92098 | 153.96552 | 38088 ft | 481 kts | 288° |
| 2026-05-04 22:27 | 29.94220 | 153.89231 | 38084 ft | 481 kts | 288° |
| 2026-05-04 22:28 | 29.96334 | 153.81921 | 38078 ft | 480 kts | 288° |
| 2026-05-04 22:28 | 29.98433 | 153.74647 | 38086 ft | 481 kts | 288° |
| 2026-05-04 22:29 | 30.00540 | 153.67330 | 38080 ft | 480 kts | 288° |
| 2026-05-04 22:29 | 30.02641 | 153.60013 | 38085 ft | 480 kts | 288° |
| 2026-05-04 22:30 | 30.04739 | 153.52693 | 38083 ft | 480 kts | 288° |
| 2026-05-04 22:30 | 30.06818 | 153.45422 | 38082 ft | 479 kts | 288° |
| 2026-05-04 22:31 | 30.08896 | 153.38133 | 38081 ft | 479 kts | 288° |
| 2026-05-04 22:31 | 30.10977 | 153.30820 | 38079 ft | 479 kts | 288° |
| 2026-05-04 22:32 | 30.13053 | 153.23506 | 38081 ft | 479 kts | 288° |
| 2026-05-04 22:32 | 30.15110 | 153.16243 | 38080 ft | 479 kts | 288° |
| 2026-05-04 22:33 | 30.17177 | 153.08927 | 38077 ft | 478 kts | 287° |
| 2026-05-04 22:33 | 30.19237 | 153.01616 | 38078 ft | 478 kts | 287° |
| 2026-05-04 22:34 | 30.21277 | 152.94360 | 38080 ft | 477 kts | 287° |
| 2026-05-04 22:34 | 30.23324 | 152.87063 | 38077 ft | 477 kts | 287° |
| 2026-05-04 22:35 | 30.25367 | 152.79762 | 38076 ft | 477 kts | 287° |
| 2026-05-04 22:35 | 30.27406 | 152.72458 | 38070 ft | 476 kts | 287° |
| 2026-05-04 22:36 | 30.29425 | 152.65209 | 38076 ft | 476 kts | 287° |
| 2026-05-04 22:36 | 30.31453 | 152.57908 | 38068 ft | 476 kts | 287° |
| 2026-05-04 22:37 | 30.33478 | 152.50599 | 38072 ft | 476 kts | 287° |
| 2026-05-04 22:37 | 30.35499 | 152.43294 | 38067 ft | 475 kts | 286° |
| 2026-05-04 22:38 | 30.37492 | 152.36065 | 38071 ft | 474 kts | 286° |
| 2026-05-04 22:38 | 30.39495 | 152.28785 | 38066 ft | 474 kts | 286° |
| 2026-05-04 22:39 | 30.41497 | 152.21492 | 38064 ft | 474 kts | 286° |
| 2026-05-04 22:39 | 30.43476 | 152.14261 | 38062 ft | 474 kts | 286° |
| 2026-05-04 22:40 | 30.45468 | 152.06969 | 38061 ft | 474 kts | 286° |
| 2026-05-04 22:40 | 30.47457 | 151.99670 | 38062 ft | 474 kts | 286° |
| 2026-05-04 22:41 | 30.49438 | 151.92384 | 38034 ft | 473 kts | 285° |
| 2026-05-04 22:41 | 30.51392 | 151.85178 | 38054 ft | 471 kts | 285° |
| 2026-05-04 22:42 | 30.53353 | 151.77926 | 38059 ft | 470 kts | 285° |
| 2026-05-04 22:42 | 30.55308 | 151.70679 | 38059 ft | 470 kts | 285° |
| 2026-05-04 22:43 | 30.57260 | 151.63428 | 38055 ft | 470 kts | 285° |
| 2026-05-04 22:43 | 30.59193 | 151.56230 | 38055 ft | 470 kts | 285° |
| 2026-05-04 22:44 | 30.61134 | 151.48983 | 38057 ft | 470 kts | 285° |
| 2026-05-04 22:44 | 30.63069 | 151.41739 | 38053 ft | 470 kts | 285° |
| 2026-05-04 22:45 | 30.64987 | 151.34543 | 38055 ft | 470 kts | 285° |
| 2026-05-04 22:45 | 30.67873 | 151.23683 | 38053 ft | 469 kts | 285° |
| 2026-05-04 22:46 | 30.69793 | 151.16433 | 38051 ft | 469 kts | 285° |
| 2026-05-04 22:46 | 30.71708 | 151.09183 | 38046 ft | 469 kts | 284° |
| 2026-05-04 22:47 | 30.73606 | 151.01984 | 38047 ft | 469 kts | 284° |
| 2026-05-04 22:47 | 30.75513 | 150.94732 | 38044 ft | 468 kts | 284° |
| 2026-05-04 22:48 | 30.77407 | 150.87509 | 38045 ft | 467 kts | 284° |
| 2026-05-04 22:48 | 30.79295 | 150.80287 | 38045 ft | 467 kts | 284° |
| 2026-05-04 22:49 | 30.81159 | 150.73111 | 38044 ft | 467 kts | 283° |
| 2026-05-04 22:49 | 30.83033 | 150.65887 | 38045 ft | 466 kts | 283° |
| 2026-05-04 22:50 | 30.84906 | 150.58662 | 38043 ft | 466 kts | 283° |
| 2026-05-04 22:50 | 30.86778 | 150.51435 | 38043 ft | 466 kts | 283° |
| 2026-05-04 22:51 | 30.88646 | 150.44207 | 38043 ft | 466 kts | 283° |
| 2026-05-04 22:51 | 30.90496 | 150.37039 | 38037 ft | 465 kts | 283° |
| 2026-05-04 22:52 | 30.92354 | 150.29823 | 38037 ft | 465 kts | 283° |
| 2026-05-04 22:52 | 30.94213 | 150.22597 | 38035 ft | 465 kts | 283° |
| 2026-05-04 22:53 | 30.96061 | 150.15379 | 38035 ft | 465 kts | 283° |
| 2026-05-04 22:53 | 30.97893 | 150.08201 | 38034 ft | 465 kts | 283° |
| 2026-05-04 22:54 | 30.99731 | 150.00976 | 38037 ft | 465 kts | 283° |
| 2026-05-04 22:54 | 31.01606 | 149.93777 | 38032 ft | 464 kts | 284° |
| 2026-05-04 22:55 | 31.03548 | 149.86610 | 38033 ft | 463 kts | 284° |
| 2026-05-04 22:55 | 31.05485 | 149.79442 | 38026 ft | 463 kts | 284° |
| 2026-05-04 22:56 | 31.07404 | 149.72272 | 38026 ft | 463 kts | 284° |
| 2026-05-04 22:56 | 31.09301 | 149.65146 | 38021 ft | 463 kts | 284° |
| 2026-05-04 22:57 | 31.11205 | 149.57968 | 38021 ft | 463 kts | 284° |
| 2026-05-04 22:57 | 31.13104 | 149.50799 | 38025 ft | 462 kts | 283° |
| 2026-05-04 22:58 | 31.14995 | 149.43642 | 38020 ft | 461 kts | 283° |
| 2026-05-04 22:58 | 31.16880 | 149.36488 | 38014 ft | 461 kts | 283° |
| 2026-05-04 22:59 | 31.18750 | 149.29373 | 38011 ft | 461 kts | 283° |
| 2026-05-04 22:59 | 31.20627 | 149.22217 | 38012 ft | 461 kts | 283° |
| 2026-05-04 23:00 | 31.22501 | 149.15054 | 38011 ft | 461 kts | 283° |
| 2026-05-04 23:00 | 31.24369 | 149.07893 | 38011 ft | 460 kts | 283° |
| 2026-05-04 23:01 | 31.26233 | 149.00732 | 38007 ft | 460 kts | 283° |
| 2026-05-04 23:01 | 31.28078 | 148.93625 | 38007 ft | 460 kts | 283° |
| 2026-05-04 23:02 | 31.29933 | 148.86459 | 38005 ft | 460 kts | 283° |
| 2026-05-04 23:02 | 31.31783 | 148.79296 | 38002 ft | 460 kts | 283° |
| 2026-05-04 23:03 | 31.33630 | 148.72127 | 38000 ft | 460 kts | 283° |
| 2026-05-04 23:03 | 31.35472 | 148.64962 | 38011 ft | 460 kts | 283° |
| 2026-05-04 23:04 | 31.37304 | 148.57815 | 37996 ft | 459 kts | 283° |
| 2026-05-04 23:04 | 31.39120 | 148.50712 | 37997 ft | 458 kts | 282° |
| 2026-05-04 23:05 | 31.40943 | 148.43562 | 37997 ft | 458 kts | 283° |
| 2026-05-04 23:05 | 31.42761 | 148.36415 | 37994 ft | 458 kts | 282° |
| 2026-05-04 23:06 | 31.44574 | 148.29266 | 37994 ft | 458 kts | 282° |
| 2026-05-04 23:06 | 31.46371 | 148.22157 | 37994 ft | 458 kts | 282° |
| 2026-05-04 23:07 | 31.48161 | 148.15006 | 37990 ft | 457 kts | 282° |
| 2026-05-04 23:07 | 31.49953 | 148.07850 | 37997 ft | 457 kts | 282° |
| 2026-05-04 23:08 | 31.51745 | 148.00701 | 38002 ft | 457 kts | 282° |
| 2026-05-04 23:08 | 31.53528 | 147.93586 | 38002 ft | 457 kts | 282° |
| 2026-05-04 23:09 | 31.55316 | 147.86431 | 38005 ft | 457 kts | 282° |
| 2026-05-04 23:09 | 31.57096 | 147.79287 | 38008 ft | 456 kts | 282° |
| 2026-05-04 23:10 | 31.58872 | 147.72139 | 38005 ft | 455 kts | 282° |
| 2026-05-04 23:10 | 31.60621 | 147.65083 | 37998 ft | 452 kts | 282° |
| 2026-05-04 23:11 | 31.62372 | 147.57998 | 38004 ft | 451 kts | 281° |
| 2026-05-04 23:11 | 31.64116 | 147.50925 | 38012 ft | 451 kts | 281° |
| 2026-05-04 23:12 | 31.65855 | 147.43849 | 38010 ft | 451 kts | 281° |
| 2026-05-04 23:12 | 31.67580 | 147.36818 | 38011 ft | 451 kts | 281° |
| 2026-05-04 23:13 | 31.69308 | 147.29758 | 38025 ft | 449 kts | 281° |
| 2026-05-04 23:13 | 31.71022 | 147.22736 | 38008 ft | 445 kts | 281° |
| 2026-05-04 23:14 | 31.72724 | 147.15739 | 38010 ft | 445 kts | 281° |
| 2026-05-04 23:14 | 31.74410 | 147.08793 | 38011 ft | 445 kts | 281° |
| 2026-05-04 23:15 | 31.76099 | 147.01815 | 38011 ft | 443 kts | 281° |
| 2026-05-04 23:15 | 31.77781 | 146.94851 | 38007 ft | 442 kts | 281° |
| 2026-05-04 23:16 | 31.79445 | 146.87937 | 38008 ft | 443 kts | 281° |
| 2026-05-04 23:16 | 31.81114 | 146.80986 | 38007 ft | 442 kts | 281° |
| 2026-05-04 23:17 | 31.82783 | 146.74020 | 38006 ft | 442 kts | 281° |
| 2026-05-04 23:17 | 31.84448 | 146.67055 | 38003 ft | 442 kts | 280° |
| 2026-05-04 23:18 | 31.86098 | 146.60127 | 38000 ft | 442 kts | 280° |
| 2026-05-04 23:18 | 31.87754 | 146.53162 | 38002 ft | 442 kts | 280° |
| 2026-05-04 23:19 | 31.89407 | 146.46188 | 38003 ft | 442 kts | 280° |
| 2026-05-04 23:19 | 31.91044 | 146.39266 | 37997 ft | 441 kts | 280° |
| 2026-05-04 23:20 | 31.92684 | 146.32311 | 38001 ft | 440 kts | 280° |
| 2026-05-04 23:20 | 31.94042 | 146.26538 | 37996 ft | 440 kts | 279° |
| 2026-05-04 23:21 | 31.95934 | 146.18471 | 38001 ft | 439 kts | 279° |
| 2026-05-04 23:21 | 31.97295 | 146.12655 | 38001 ft | 439 kts | 279° |
| 2026-05-04 23:22 | 31.98904 | 146.05761 | 38000 ft | 439 kts | 279° |
| 2026-05-04 23:22 | 32.00912 | 145.98925 | 38000 ft | 447 kts | 289° |
| 2026-05-04 23:23 | 32.03987 | 145.92514 | 37999 ft | 450 kts | 294° |
| 2026-05-04 23:23 | 32.07245 | 145.86252 | 38003 ft | 451 kts | 294° |
| 2026-05-04 23:24 | 32.10549 | 145.79961 | 38001 ft | 451 kts | 294° |
| 2026-05-04 23:24 | 32.13832 | 145.73665 | 38029 ft | 450 kts | 293° |
| 2026-05-04 23:25 | 32.17095 | 145.67369 | 37997 ft | 448 kts | 293° |
| 2026-05-04 23:25 | 32.20322 | 145.61123 | 37999 ft | 448 kts | 293° |
| 2026-05-04 23:26 | 32.23562 | 145.54839 | 37998 ft | 448 kts | 293° |
| 2026-05-04 23:26 | 32.26802 | 145.48550 | 38000 ft | 448 kts | 293° |
| 2026-05-04 23:27 | 32.30036 | 145.42263 | 37998 ft | 447 kts | 292° |
| 2026-05-04 23:27 | 32.33240 | 145.36023 | 37999 ft | 446 kts | 292° |
| 2026-05-04 23:28 | 32.36458 | 145.29745 | 37998 ft | 446 kts | 292° |
| 2026-05-04 23:28 | 32.39676 | 145.23456 | 38000 ft | 446 kts | 292° |
| 2026-05-04 23:29 | 32.42883 | 145.17180 | 38008 ft | 446 kts | 292° |
| 2026-05-04 23:29 | 32.46087 | 145.10899 | 38015 ft | 445 kts | 292° |
| 2026-05-04 23:30 | 32.47683 | 145.07765 | 38136 ft | 445 kts | 292° |
| 2026-05-04 23:30 | 32.49281 | 145.04623 | 38149 ft | 445 kts | 292° |
| 2026-05-04 23:30 | 32.52452 | 144.98386 | 38147 ft | 445 kts | 292° |
| 2026-05-04 23:31 | 32.55641 | 144.92101 | 38190 ft | 445 kts | 291° |
| 2026-05-04 23:31 | 32.58824 | 144.85819 | 38146 ft | 444 kts | 291° |
| 2026-05-04 23:32 | 32.61998 | 144.79540 | 38151 ft | 443 kts | 291° |
| 2026-05-04 23:32 | 32.65144 | 144.73308 | 38134 ft | 443 kts | 291° |
| 2026-05-04 23:33 | 32.68311 | 144.67026 | 38145 ft | 443 kts | 291° |
| 2026-05-04 23:33 | 32.71467 | 144.60756 | 38147 ft | 441 kts | 291° |
| 2026-05-04 23:34 | 32.74612 | 144.54496 | 38145 ft | 441 kts | 291° |
| 2026-05-04 23:34 | 32.77732 | 144.48273 | 38150 ft | 441 kts | 291° |
| 2026-05-04 23:35 | 32.80862 | 144.42020 | 38146 ft | 440 kts | 291° |
| 2026-05-04 23:35 | 32.83990 | 144.35761 | 38149 ft | 439 kts | 290° |
| 2026-05-04 23:36 | 32.87103 | 144.29526 | 38143 ft | 438 kts | 290° |
| 2026-05-04 23:36 | 32.90204 | 144.23298 | 38147 ft | 437 kts | 290° |
| 2026-05-04 23:37 | 32.93279 | 144.17112 | 38146 ft | 437 kts | 290° |
| 2026-05-04 23:37 | 32.96374 | 144.10877 | 38168 ft | 437 kts | 290° |
| 2026-05-04 23:38 | 32.99449 | 144.04678 | 38147 ft | 433 kts | 290° |
| 2026-05-04 23:38 | 33.02492 | 143.98526 | 38148 ft | 433 kts | 290° |
| 2026-05-04 23:39 | 33.05545 | 143.92340 | 38149 ft | 433 kts | 290° |
| 2026-05-04 23:39 | 33.08597 | 143.86148 | 38148 ft | 433 kts | 290° |
| 2026-05-04 23:40 | 33.11644 | 143.79956 | 38152 ft | 433 kts | 290° |
| 2026-05-04 23:40 | 33.14670 | 143.73799 | 38150 ft | 433 kts | 290° |
| 2026-05-04 23:41 | 33.17708 | 143.67610 | 38152 ft | 432 kts | 290° |
| 2026-05-04 23:41 | 33.20740 | 143.61418 | 38151 ft | 431 kts | 290° |
| 2026-05-04 23:42 | 33.23764 | 143.55234 | 38162 ft | 430 kts | 290° |
| 2026-05-04 23:42 | 33.26760 | 143.49096 | 38166 ft | 430 kts | 289° |
| 2026-05-04 23:43 | 33.29768 | 143.42921 | 38155 ft | 429 kts | 289° |
| 2026-05-04 23:43 | 33.32774 | 143.36739 | 38154 ft | 429 kts | 289° |
| 2026-05-04 23:44 | 33.35754 | 143.30606 | 38158 ft | 429 kts | 289° |
| 2026-05-04 23:44 | 33.39425 | 143.24782 | 38160 ft | 451 kts | 303° |
| 2026-05-04 23:45 | 33.41823 | 143.22282 | 38160 ft | 465 kts | 311° |
| 2026-05-04 23:45 | 33.44493 | 143.20042 | 38165 ft | 470 kts | 314° |
| 2026-05-04 23:45 | 33.50016 | 143.15773 | 38196 ft | 474 kts | 315° |
| 2026-05-04 23:46 | 33.55556 | 143.11582 | 38162 ft | 475 kts | 315° |
| 2026-05-04 23:46 | 33.61130 | 143.07318 | 38162 ft | 474 kts | 314° |
| 2026-05-04 23:47 | 33.66677 | 143.03032 | 38192 ft | 474 kts | 314° |
| 2026-05-04 23:47 | 33.72189 | 142.98754 | 38168 ft | 475 kts | 314° |
| 2026-05-04 23:48 | 33.77739 | 142.94438 | 38168 ft | 476 kts | 314° |
| 2026-05-04 23:48 | 33.83304 | 142.90109 | 38201 ft | 476 kts | 314° |
| 2026-05-04 23:49 | 33.88829 | 142.85805 | 38173 ft | 476 kts | 314° |
| 2026-05-04 23:49 | 33.94389 | 142.81466 | 38174 ft | 476 kts | 314° |
| 2026-05-04 23:50 | 33.99947 | 142.77122 | 38215 ft | 476 kts | 314° |
| 2026-05-04 23:50 | 34.05498 | 142.72780 | 38178 ft | 475 kts | 314° |
| 2026-05-04 23:51 | 34.11036 | 142.68445 | 38178 ft | 474 kts | 314° |
| 2026-05-04 23:51 | 34.16522 | 142.64115 | 38217 ft | 474 kts | 313° |
| 2026-05-04 23:52 | 34.22053 | 142.59744 | 38179 ft | 474 kts | 313° |
| 2026-05-04 23:52 | 34.27578 | 142.55375 | 38183 ft | 474 kts | 313° |
| 2026-05-04 23:53 | 34.33069 | 142.51033 | 38204 ft | 474 kts | 313° |
| 2026-05-04 23:53 | 34.38569 | 142.46682 | 38191 ft | 470 kts | 313° |
| 2026-05-04 23:54 | 34.44040 | 142.42340 | 38192 ft | 469 kts | 313° |
| 2026-05-04 23:54 | 34.49493 | 142.38000 | 38198 ft | 468 kts | 313° |
| 2026-05-04 23:55 | 34.54877 | 142.33722 | 38188 ft | 463 kts | 313° |
| 2026-05-04 23:56 | 34.62608 | 142.26948 | 38193 ft | 442 kts | 302° |
| 2026-05-04 23:56 | 34.64636 | 142.24228 | 38189 ft | 426 kts | 295° |
| 2026-05-04 23:56 | 34.66264 | 142.21301 | 38186 ft | 413 kts | 288° |
| 2026-05-04 23:56 | 34.67486 | 142.18241 | 38191 ft | 402 kts | 281° |
| 2026-05-04 23:57 | 34.68333 | 142.15043 | 38206 ft | 393 kts | 275° |
| 2026-05-04 23:57 | 34.68972 | 142.08558 | 38190 ft | 384 kts | 266° |
| 2026-05-04 23:58 | 34.69113 | 142.02088 | 38185 ft | 383 kts | 265° |
| 2026-05-04 23:58 | 34.69203 | 141.95635 | 38193 ft | 382 kts | 265° |
| 2026-05-04 23:59 | 34.69308 | 141.89214 | 38203 ft | 382 kts | 265° |
| 2026-05-04 23:59 | 34.69427 | 141.82782 | 38195 ft | 380 kts | 265° |
| 2026-05-05 00:00 | 34.69547 | 141.76384 | 38199 ft | 378 kts | 265° |
| 2026-05-05 00:00 | 34.69665 | 141.70007 | 38198 ft | 377 kts | 265° |
| 2026-05-05 00:01 | 34.69772 | 141.63692 | 38202 ft | 377 kts | 265° |
| 2026-05-05 00:01 | 34.69862 | 141.57327 | 38201 ft | 376 kts | 265° |
| 2026-05-05 00:02 | 34.69953 | 141.50950 | 38199 ft | 376 kts | 265° |
| 2026-05-05 00:02 | 34.70043 | 141.44579 | 38204 ft | 376 kts | 265° |
| 2026-05-05 00:03 | 34.70110 | 141.38220 | 38202 ft | 376 kts | 264° |
| 2026-05-05 00:03 | 34.70105 | 141.31870 | 38208 ft | 376 kts | 264° |
| 2026-05-05 00:04 | 34.70095 | 141.25555 | 38205 ft | 376 kts | 264° |
| 2026-05-05 00:04 | 34.70092 | 141.19206 | 38205 ft | 376 kts | 264° |
| 2026-05-05 00:05 | 34.70094 | 141.12848 | 38207 ft | 376 kts | 264° |
| 2026-05-05 00:05 | 34.70094 | 141.06495 | 38205 ft | 375 kts | 264° |
| 2026-05-05 00:06 | 34.70090 | 141.00210 | 38206 ft | 374 kts | 264° |
| 2026-05-05 00:06 | 34.70082 | 140.93896 | 38205 ft | 373 kts | 264° |
| 2026-05-05 00:07 | 34.70076 | 140.87617 | 38199 ft | 374 kts | 264° |
| 2026-05-05 00:07 | 34.70067 | 140.81313 | 38262 ft | 372 kts | 263° |
| 2026-05-05 00:08 | 34.70047 | 140.75005 | 38206 ft | 374 kts | 263° |
| 2026-05-05 00:08 | 34.70017 | 140.68711 | 38203 ft | 375 kts | 263° |
| 2026-05-05 00:09 | 34.69989 | 140.62378 | 38198 ft | 375 kts | 263° |
| 2026-05-05 00:09 | 34.69961 | 140.56050 | 38179 ft | 374 kts | 263° |
| 2026-05-05 00:09 | 34.69949 | 140.52917 | 38028 ft | 364 kts | 263° |
| 2026-05-05 00:10 | 34.69941 | 140.49897 | 37279 ft | 352 kts | 263° |
| 2026-05-05 00:10 | 34.69926 | 140.46928 | 35950 ft | 354 kts | 262° |
| 2026-05-05 00:10 | 34.69903 | 140.43904 | 34517 ft | 361 kts | 262° |
| 2026-05-05 00:10 | 34.69904 | 140.40860 | 32965 ft | 370 kts | 264° |
| 2026-05-05 00:11 | 34.70216 | 140.37652 | 31160 ft | 388 kts | 273° |
| 2026-05-05 00:11 | 34.71108 | 140.34498 | 29878 ft | 412 kts | 285° |
| 2026-05-05 00:11 | 34.72565 | 140.31409 | 29489 ft | 428 kts | 291° |
| 2026-05-05 00:11 | 34.74170 | 140.28363 | 29046 ft | 425 kts | 291° |
| 2026-05-05 00:12 | 34.75768 | 140.25365 | 28393 ft | 421 kts | 292° |
| 2026-05-05 00:12 | 34.77348 | 140.22390 | 27712 ft | 417 kts | 292° |
| 2026-05-05 00:12 | 34.78914 | 140.19431 | 27017 ft | 414 kts | 292° |
| 2026-05-05 00:12 | 34.80464 | 140.16496 | 26348 ft | 411 kts | 293° |
| 2026-05-05 00:13 | 34.82000 | 140.13584 | 25708 ft | 408 kts | 294° |
| 2026-05-05 00:13 | 34.83501 | 140.10744 | 25350 ft | 399 kts | 294° |
| 2026-05-05 00:13 | 34.84978 | 140.07950 | 25221 ft | 388 kts | 294° |
| 2026-05-05 00:13 | 34.86432 | 140.05181 | 25192 ft | 388 kts | 294° |
| 2026-05-05 00:14 | 34.87886 | 140.02404 | 25188 ft | 389 kts | 294° |
| 2026-05-05 00:14 | 34.89345 | 139.99618 | 25188 ft | 390 kts | 294° |
| 2026-05-05 00:14 | 34.90804 | 139.96833 | 25170 ft | 390 kts | 294° |
| 2026-05-05 00:14 | 34.92266 | 139.94046 | 25181 ft | 391 kts | 294° |
| 2026-05-05 00:15 | 34.93922 | 139.91426 | 25184 ft | 404 kts | 304° |
| 2026-05-05 00:15 | 34.96212 | 139.89304 | 25195 ft | 426 kts | 320° |
| 2026-05-05 00:15 | 34.99041 | 139.87977 | 25188 ft | 444 kts | 333° |
| 2026-05-05 00:15 | 35.02061 | 139.87041 | 25183 ft | 447 kts | 335° |
| 2026-05-05 00:16 | 35.05084 | 139.86141 | 25181 ft | 447 kts | 335° |
| 2026-05-05 00:16 | 35.08111 | 139.85224 | 25181 ft | 447 kts | 334° |
| 2026-05-05 00:16 | 35.11084 | 139.84310 | 25182 ft | 447 kts | 334° |
| 2026-05-05 00:16 | 35.14097 | 139.83371 | 25183 ft | 445 kts | 334° |
| 2026-05-05 00:17 | 35.17097 | 139.82429 | 25182 ft | 445 kts | 334° |
| 2026-05-05 00:17 | 35.20073 | 139.81495 | 25033 ft | 432 kts | 334° |
| 2026-05-05 00:17 | 35.22989 | 139.80788 | 24488 ft | 435 kts | 346° |
| 2026-05-05 00:17 | 35.26008 | 139.81073 | 24128 ft | 436 kts | 2° |
| 2026-05-05 00:18 | 35.28826 | 139.82414 | 23763 ft | 437 kts | 22° |
| 2026-05-05 00:18 | 35.31156 | 139.84786 | 23395 ft | 435 kts | 43° |
| 2026-05-05 00:18 | 35.32687 | 139.87876 | 23062 ft | 429 kts | 64° |
| 2026-05-05 00:18 | 35.33290 | 139.91391 | 22676 ft | 416 kts | 89° |
| 2026-05-05 00:19 | 35.32878 | 139.94784 | 22276 ft | 394 kts | 113° |
| 2026-05-05 00:19 | 35.31563 | 139.97602 | 21741 ft | 371 kts | 139° |
| 2026-05-05 00:19 | 35.29606 | 139.99497 | 20993 ft | 353 kts | 159° |
| 2026-05-05 00:19 | 35.27413 | 140.00845 | 19970 ft | 353 kts | 168° |
| 2026-05-05 00:20 | 35.24994 | 140.01350 | 19562 ft | 358 kts | 190° |
| 2026-05-05 00:20 | 35.22632 | 140.00728 | 19469 ft | 343 kts | 212° |
| 2026-05-05 00:20 | 35.20721 | 139.99141 | 18792 ft | 328 kts | 235° |
| 2026-05-05 00:20 | 35.19584 | 139.96814 | 17718 ft | 319 kts | 261° |
| 2026-05-05 00:21 | 35.19518 | 139.94064 | 17448 ft | 334 kts | 282° |
| 2026-05-05 00:21 | 35.19901 | 139.91248 | 17174 ft | 332 kts | 282° |
| 2026-05-05 00:21 | 35.20179 | 139.88495 | 16389 ft | 323 kts | 280° |
| 2026-05-05 00:21 | 35.20595 | 139.85759 | 15847 ft | 331 kts | 289° |
| 2026-05-05 00:22 | 35.21483 | 139.83153 | 15364 ft | 332 kts | 301° |
| 2026-05-05 00:22 | 35.22866 | 139.80929 | 14821 ft | 328 kts | 315° |
| 2026-05-05 00:22 | 35.24662 | 139.79246 | 14264 ft | 326 kts | 329° |
| 2026-05-05 00:22 | 35.26730 | 139.78213 | 13679 ft | 327 kts | 342° |
| 2026-05-05 00:23 | 35.28983 | 139.77777 | 13010 ft | 329 kts | 350° |
| 2026-05-05 00:23 | 35.31246 | 139.77419 | 12415 ft | 326 kts | 348° |
| 2026-05-05 00:23 | 35.33466 | 139.76957 | 11898 ft | 321 kts | 347° |
| 2026-05-05 00:23 | 35.35649 | 139.76417 | 11394 ft | 319 kts | 345° |
| 2026-05-05 00:24 | 35.37796 | 139.75828 | 11124 ft | 309 kts | 345° |
| 2026-05-05 00:24 | 35.39842 | 139.75239 | 11007 ft | 294 kts | 344° |
| 2026-05-05 00:24 | 35.41720 | 139.74685 | 10899 ft | 269 kts | 343° |
| 2026-05-05 00:24 | 35.43473 | 139.74159 | 10787 ft | 252 kts | 343° |
| 2026-05-05 00:25 | 35.45150 | 139.73649 | 10687 ft | 246 kts | 343° |
| 2026-05-05 00:25 | 35.46818 | 139.73135 | 10568 ft | 247 kts | 343° |
| 2026-05-05 00:25 | 35.48495 | 139.72613 | 10451 ft | 250 kts | 343° |
| 2026-05-05 00:25 | 35.50181 | 139.72087 | 10242 ft | 250 kts | 343° |
| 2026-05-05 00:26 | 35.51864 | 139.71568 | 9933 ft | 250 kts | 343° |
| 2026-05-05 00:26 | 35.53598 | 139.71031 | 9665 ft | 265 kts | 343° |
| 2026-05-05 00:26 | 35.55412 | 139.70469 | 9553 ft | 270 kts | 343° |
| 2026-05-05 00:26 | 35.57209 | 139.69914 | 9132 ft | 269 kts | 343° |
| 2026-05-05 00:27 | 35.59007 | 139.69357 | 8648 ft | 269 kts | 343° |
| 2026-05-05 00:27 | 35.60813 | 139.68798 | 8297 ft | 266 kts | 343° |
| 2026-05-05 00:27 | 35.62595 | 139.68246 | 7999 ft | 263 kts | 343° |
| 2026-05-05 00:27 | 35.64378 | 139.67692 | 7675 ft | 264 kts | 343° |
| 2026-05-05 00:28 | 35.66156 | 139.67139 | 7358 ft | 263 kts | 344° |
| 2026-05-05 00:28 | 35.67930 | 139.66587 | 7032 ft | 264 kts | 344° |
| 2026-05-05 00:28 | 35.69712 | 139.66033 | 6706 ft | 264 kts | 344° |
| 2026-05-05 00:28 | 35.71494 | 139.65478 | 6362 ft | 264 kts | 344° |
| 2026-05-05 00:29 | 35.73269 | 139.64926 | 6040 ft | 262 kts | 344° |
| 2026-05-05 00:29 | 35.75036 | 139.64431 | 5711 ft | 258 kts | 350° |
| 2026-05-05 00:29 | 35.76744 | 139.64784 | 5502 ft | 254 kts | 25° |
| 2026-05-05 00:29 | 35.77968 | 139.66281 | 5313 ft | 251 kts | 60° |
| 2026-05-05 00:30 | 35.78234 | 139.68360 | 5170 ft | 248 kts | 97° |
| 2026-05-05 00:30 | 35.77475 | 139.70220 | 4883 ft | 248 kts | 135° |
| 2026-05-05 00:30 | 35.76079 | 139.70980 | 5314 ft | 191 kts | 182° |
| 2026-05-05 00:30 | 35.74857 | 139.70889 | 5211 ft | 175 kts | 188° |
| 2026-05-05 00:31 | 35.73599 | 139.70801 | 4572 ft | 187 kts | 184° |
| 2026-05-05 00:31 | 35.72272 | 139.70869 | 4022 ft | 193 kts | 174° |
| 2026-05-05 00:31 | 35.71194 | 139.71250 | 3564 ft | 196 kts | 154° |
| 2026-05-05 00:31 | 35.70753 | 139.71522 | 3404 ft | 195 kts | 151° |
| 2026-05-05 00:32 | 35.70481 | 139.71722 | 2325 ft | 0 kts | 134° |
| 2026-05-05 00:32 | 35.68705 | 139.74006 | 1848 ft | 0 kts | 121° |
| 2026-05-05 00:32 | 35.68580 | 139.74145 | 808 ft | 13 kts | 145° |
| 2026-05-05 00:32 | 35.68553 | 139.74163 | 1359 ft | 0 kts | 148° |
| 2026-05-05 00:33 | 35.68708 | 139.74044 | 3773 ft | 0 kts | 148° |
| 2026-05-05 00:33 | 35.68258 | 139.74566 | 1359 ft | 222 kts | 128° |
| 2026-05-05 00:33 | 35.67120 | 139.76142 | 1136 ft | 212 kts | 129° |
| 2026-05-05 00:33 | 35.66183 | 139.77220 | 1712 ft | 163 kts | 148° |
| 2026-05-05 00:34 | 35.65209 | 139.77500 | 1564 ft | 141 kts | 194° |
| 2026-05-05 00:34 | 35.59664 | 139.76443 | 1391 ft | 143 kts | 150° |
| 2026-05-05 00:34 | 35.57569 | 139.78006 | 1220 ft | 136 kts | 153° |
| 2026-05-05 00:34 | 35.56715 | 139.78533 | 707 ft | 142 kts | 150° |